<?xml version="1.0" encoding="UTF-8" standalone="no" ?>
<gpx xmlns="http://www.topografix.com/GPX/1/1" xmlns:xsi="http://www.w3.org/2001/XMLSchema-instance" xsi:schemaLocation="http://www.topografix.com/GPX/1/1 http://www.topografix.com/GPX/1/1/gpx.xsd" version="1.1" creator="VisuGPX - https://www.visugpx.com">
  <metadata>
    <name>PLOMBIERES les DIJON - Viaduc de NEUVON (variante)</name>
    <desc><![CDATA[Belle randonnée ombragée, à éviter par temps humide à cause de passages glissants.]]></desc>
  </metadata>
  <trk>
    <name><![CDATA[2016-10-25-01]]></name>
    <trkseg>
      <trkpt lat="47.33912" lon="4.94218">
        <ele>282.7</ele>
        <time>2016-10-25T12:12:32Z</time>
      </trkpt>
      <trkpt lat="47.33912" lon="4.94218">
        <ele>282.6</ele>
        <time>2016-10-25T12:12:33Z</time>
      </trkpt>
      <trkpt lat="47.33919" lon="4.94208">
        <ele>282.3</ele>
        <time>2016-10-25T12:12:35Z</time>
      </trkpt>
      <trkpt lat="47.33925" lon="4.94198">
        <ele>281.8</ele>
        <time>2016-10-25T12:12:42Z</time>
      </trkpt>
      <trkpt lat="47.3393" lon="4.94186">
        <ele>281.6</ele>
        <time>2016-10-25T12:12:51Z</time>
      </trkpt>
      <trkpt lat="47.33932" lon="4.94173">
        <ele>281.5</ele>
        <time>2016-10-25T12:12:57Z</time>
      </trkpt>
      <trkpt lat="47.33938" lon="4.9416">
        <ele>281.5</ele>
        <time>2016-10-25T12:13:05Z</time>
      </trkpt>
      <trkpt lat="47.33944" lon="4.94148">
        <ele>281.5</ele>
        <time>2016-10-25T12:13:10Z</time>
      </trkpt>
      <trkpt lat="47.3395" lon="4.94138">
        <ele>281.4</ele>
        <time>2016-10-25T12:13:15Z</time>
      </trkpt>
      <trkpt lat="47.33955" lon="4.94126">
        <ele>282.1</ele>
        <time>2016-10-25T12:13:21Z</time>
      </trkpt>
      <trkpt lat="47.3396" lon="4.94114">
        <ele>282.4</ele>
        <time>2016-10-25T12:13:26Z</time>
      </trkpt>
      <trkpt lat="47.33965" lon="4.94101">
        <ele>282.8</ele>
        <time>2016-10-25T12:13:32Z</time>
      </trkpt>
      <trkpt lat="47.33968" lon="4.94088">
        <ele>283.6</ele>
        <time>2016-10-25T12:13:41Z</time>
      </trkpt>
      <trkpt lat="47.33974" lon="4.94078">
        <ele>283.8</ele>
        <time>2016-10-25T12:14:09Z</time>
      </trkpt>
      <trkpt lat="47.33984" lon="4.94077">
        <ele>284.2</ele>
        <time>2016-10-25T12:14:17Z</time>
      </trkpt>
      <trkpt lat="47.33994" lon="4.9408">
        <ele>284.3</ele>
        <time>2016-10-25T12:14:25Z</time>
      </trkpt>
      <trkpt lat="47.34003" lon="4.94082">
        <ele>284.4</ele>
        <time>2016-10-25T12:14:32Z</time>
      </trkpt>
      <trkpt lat="47.34011" lon="4.94088">
        <ele>284.8</ele>
        <time>2016-10-25T12:14:40Z</time>
      </trkpt>
      <trkpt lat="47.34019" lon="4.94096">
        <ele>285</ele>
        <time>2016-10-25T12:14:47Z</time>
      </trkpt>
      <trkpt lat="47.34028" lon="4.94102">
        <ele>285.3</ele>
        <time>2016-10-25T12:14:56Z</time>
      </trkpt>
      <trkpt lat="47.34038" lon="4.94107">
        <ele>285.4</ele>
        <time>2016-10-25T12:15:05Z</time>
      </trkpt>
      <trkpt lat="47.34047" lon="4.9411">
        <ele>286</ele>
        <time>2016-10-25T12:15:14Z</time>
      </trkpt>
      <trkpt lat="47.34057" lon="4.94114">
        <ele>286.2</ele>
        <time>2016-10-25T12:15:23Z</time>
      </trkpt>
      <trkpt lat="47.34066" lon="4.94115">
        <ele>286.6</ele>
        <time>2016-10-25T12:15:31Z</time>
      </trkpt>
      <trkpt lat="47.34073" lon="4.94124">
        <ele>287.1</ele>
        <time>2016-10-25T12:15:39Z</time>
      </trkpt>
      <trkpt lat="47.34081" lon="4.94133">
        <ele>287.3</ele>
        <time>2016-10-25T12:15:48Z</time>
      </trkpt>
      <trkpt lat="47.34091" lon="4.94137">
        <ele>287.9</ele>
        <time>2016-10-25T12:15:57Z</time>
      </trkpt>
      <trkpt lat="47.34099" lon="4.94144">
        <ele>288</ele>
        <time>2016-10-25T12:16:05Z</time>
      </trkpt>
      <trkpt lat="47.34108" lon="4.9415">
        <ele>288.2</ele>
        <time>2016-10-25T12:16:13Z</time>
      </trkpt>
      <trkpt lat="47.34115" lon="4.94158">
        <ele>288.7</ele>
        <time>2016-10-25T12:16:20Z</time>
      </trkpt>
      <trkpt lat="47.34123" lon="4.94167">
        <ele>288.7</ele>
        <time>2016-10-25T12:16:28Z</time>
      </trkpt>
      <trkpt lat="47.34131" lon="4.94175">
        <ele>289.3</ele>
        <time>2016-10-25T12:16:36Z</time>
      </trkpt>
      <trkpt lat="47.34139" lon="4.94184">
        <ele>289.4</ele>
        <time>2016-10-25T12:16:45Z</time>
      </trkpt>
      <trkpt lat="47.34148" lon="4.94189">
        <ele>289.5</ele>
        <time>2016-10-25T12:16:56Z</time>
      </trkpt>
      <trkpt lat="47.34157" lon="4.94193">
        <ele>288.5</ele>
        <time>2016-10-25T12:17:06Z</time>
      </trkpt>
      <trkpt lat="47.34166" lon="4.942">
        <ele>287.8</ele>
        <time>2016-10-25T12:17:15Z</time>
      </trkpt>
      <trkpt lat="47.34175" lon="4.94205">
        <ele>287.5</ele>
        <time>2016-10-25T12:17:28Z</time>
      </trkpt>
      <trkpt lat="47.34183" lon="4.94213">
        <ele>287</ele>
        <time>2016-10-25T12:17:38Z</time>
      </trkpt>
      <trkpt lat="47.34192" lon="4.94213">
        <ele>286.9</ele>
        <time>2016-10-25T12:17:49Z</time>
      </trkpt>
      <trkpt lat="47.34201" lon="4.94212">
        <ele>287.4</ele>
        <time>2016-10-25T12:18:08Z</time>
      </trkpt>
      <trkpt lat="47.34211" lon="4.94208">
        <ele>287.4</ele>
        <time>2016-10-25T12:18:18Z</time>
      </trkpt>
      <trkpt lat="47.3422" lon="4.94201">
        <ele>287.9</ele>
        <time>2016-10-25T12:18:22Z</time>
      </trkpt>
      <trkpt lat="47.34231" lon="4.94196">
        <ele>288</ele>
        <time>2016-10-25T12:18:26Z</time>
      </trkpt>
      <trkpt lat="47.34241" lon="4.94193">
        <ele>288.8</ele>
        <time>2016-10-25T12:18:34Z</time>
      </trkpt>
      <trkpt lat="47.3425" lon="4.94189">
        <ele>288.6</ele>
        <time>2016-10-25T12:18:39Z</time>
      </trkpt>
      <trkpt lat="47.34259" lon="4.94183">
        <ele>288.8</ele>
        <time>2016-10-25T12:18:46Z</time>
      </trkpt>
      <trkpt lat="47.34269" lon="4.94177">
        <ele>289.2</ele>
        <time>2016-10-25T12:18:52Z</time>
      </trkpt>
      <trkpt lat="47.34279" lon="4.94171">
        <ele>289.8</ele>
        <time>2016-10-25T12:18:57Z</time>
      </trkpt>
      <trkpt lat="47.34286" lon="4.94164">
        <ele>290.3</ele>
        <time>2016-10-25T12:19:07Z</time>
      </trkpt>
      <trkpt lat="47.34295" lon="4.94161">
        <ele>291.1</ele>
        <time>2016-10-25T12:19:20Z</time>
      </trkpt>
      <trkpt lat="47.34304" lon="4.94158">
        <ele>291.6</ele>
        <time>2016-10-25T12:19:29Z</time>
      </trkpt>
      <trkpt lat="47.34314" lon="4.94153">
        <ele>292.7</ele>
        <time>2016-10-25T12:19:41Z</time>
      </trkpt>
      <trkpt lat="47.34322" lon="4.94147">
        <ele>293.1</ele>
        <time>2016-10-25T12:19:51Z</time>
      </trkpt>
      <trkpt lat="47.34329" lon="4.94139">
        <ele>294.9</ele>
        <time>2016-10-25T12:20:07Z</time>
      </trkpt>
      <trkpt lat="47.34337" lon="4.9413">
        <ele>295.7</ele>
        <time>2016-10-25T12:20:22Z</time>
      </trkpt>
      <trkpt lat="47.34344" lon="4.94122">
        <ele>296.1</ele>
        <time>2016-10-25T12:20:28Z</time>
      </trkpt>
      <trkpt lat="47.34354" lon="4.94119">
        <ele>296</ele>
        <time>2016-10-25T12:20:37Z</time>
      </trkpt>
      <trkpt lat="47.34362" lon="4.94113">
        <ele>295.9</ele>
        <time>2016-10-25T12:20:47Z</time>
      </trkpt>
      <trkpt lat="47.34371" lon="4.94107">
        <ele>295.9</ele>
        <time>2016-10-25T12:20:57Z</time>
      </trkpt>
      <trkpt lat="47.34378" lon="4.94098">
        <ele>295.9</ele>
        <time>2016-10-25T12:21:08Z</time>
      </trkpt>
      <trkpt lat="47.34386" lon="4.94091">
        <ele>295.9</ele>
        <time>2016-10-25T12:21:13Z</time>
      </trkpt>
      <trkpt lat="47.34395" lon="4.9408">
        <ele>295.8</ele>
        <time>2016-10-25T12:21:18Z</time>
      </trkpt>
      <trkpt lat="47.34401" lon="4.94071">
        <ele>295.6</ele>
        <time>2016-10-25T12:21:22Z</time>
      </trkpt>
      <trkpt lat="47.34407" lon="4.9406">
        <ele>295.5</ele>
        <time>2016-10-25T12:21:29Z</time>
      </trkpt>
      <trkpt lat="47.3441" lon="4.94046">
        <ele>295.8</ele>
        <time>2016-10-25T12:21:44Z</time>
      </trkpt>
      <trkpt lat="47.34412" lon="4.94033">
        <ele>296</ele>
        <time>2016-10-25T12:21:49Z</time>
      </trkpt>
      <trkpt lat="47.34413" lon="4.94019">
        <ele>296</ele>
        <time>2016-10-25T12:21:55Z</time>
      </trkpt>
      <trkpt lat="47.34417" lon="4.94005">
        <ele>296.2</ele>
        <time>2016-10-25T12:22:00Z</time>
      </trkpt>
      <trkpt lat="47.34424" lon="4.93994">
        <ele>295.9</ele>
        <time>2016-10-25T12:22:04Z</time>
      </trkpt>
      <trkpt lat="47.34423" lon="4.9398">
        <ele>295.9</ele>
        <time>2016-10-25T12:22:12Z</time>
      </trkpt>
      <trkpt lat="47.34426" lon="4.93966">
        <ele>296</ele>
        <time>2016-10-25T12:22:21Z</time>
      </trkpt>
      <trkpt lat="47.34426" lon="4.93952">
        <ele>295.8</ele>
        <time>2016-10-25T12:22:31Z</time>
      </trkpt>
      <trkpt lat="47.34425" lon="4.93937">
        <ele>296.2</ele>
        <time>2016-10-25T12:22:41Z</time>
      </trkpt>
      <trkpt lat="47.34428" lon="4.93924">
        <ele>296.2</ele>
        <time>2016-10-25T12:22:48Z</time>
      </trkpt>
      <trkpt lat="47.34434" lon="4.93914">
        <ele>296.6</ele>
        <time>2016-10-25T12:22:54Z</time>
      </trkpt>
      <trkpt lat="47.3443" lon="4.939">
        <ele>297</ele>
        <time>2016-10-25T12:23:04Z</time>
      </trkpt>
      <trkpt lat="47.34435" lon="4.93888">
        <ele>296.9</ele>
        <time>2016-10-25T12:23:10Z</time>
      </trkpt>
      <trkpt lat="47.34438" lon="4.93875">
        <ele>297.3</ele>
        <time>2016-10-25T12:23:19Z</time>
      </trkpt>
      <trkpt lat="47.34444" lon="4.93861">
        <ele>297.6</ele>
        <time>2016-10-25T12:23:27Z</time>
      </trkpt>
      <trkpt lat="47.34449" lon="4.9385">
        <ele>297.7</ele>
        <time>2016-10-25T12:23:33Z</time>
      </trkpt>
      <trkpt lat="47.34455" lon="4.9384">
        <ele>298.2</ele>
        <time>2016-10-25T12:23:47Z</time>
      </trkpt>
      <trkpt lat="47.34461" lon="4.9383">
        <ele>298.7</ele>
        <time>2016-10-25T12:24:09Z</time>
      </trkpt>
      <trkpt lat="47.34468" lon="4.93819">
        <ele>299.2</ele>
        <time>2016-10-25T12:24:15Z</time>
      </trkpt>
      <trkpt lat="47.34477" lon="4.9381">
        <ele>299.4</ele>
        <time>2016-10-25T12:24:19Z</time>
      </trkpt>
      <trkpt lat="47.34485" lon="4.93802">
        <ele>299.4</ele>
        <time>2016-10-25T12:24:23Z</time>
      </trkpt>
      <trkpt lat="47.34491" lon="4.93792">
        <ele>299.9</ele>
        <time>2016-10-25T12:24:30Z</time>
      </trkpt>
      <trkpt lat="47.345" lon="4.93785">
        <ele>300.1</ele>
        <time>2016-10-25T12:24:39Z</time>
      </trkpt>
      <trkpt lat="47.34508" lon="4.93777">
        <ele>300.3</ele>
        <time>2016-10-25T12:24:47Z</time>
      </trkpt>
      <trkpt lat="47.34518" lon="4.93775">
        <ele>300.7</ele>
        <time>2016-10-25T12:24:54Z</time>
      </trkpt>
      <trkpt lat="47.34526" lon="4.93769">
        <ele>301.2</ele>
        <time>2016-10-25T12:25:08Z</time>
      </trkpt>
      <trkpt lat="47.34536" lon="4.93764">
        <ele>302.1</ele>
        <time>2016-10-25T12:25:17Z</time>
      </trkpt>
      <trkpt lat="47.34543" lon="4.93754">
        <ele>303.1</ele>
        <time>2016-10-25T12:25:41Z</time>
      </trkpt>
      <trkpt lat="47.34552" lon="4.93749">
        <ele>304.3</ele>
        <time>2016-10-25T12:25:47Z</time>
      </trkpt>
      <trkpt lat="47.3456" lon="4.93741">
        <ele>304.8</ele>
        <time>2016-10-25T12:25:55Z</time>
      </trkpt>
      <trkpt lat="47.34569" lon="4.93736">
        <ele>306</ele>
        <time>2016-10-25T12:26:05Z</time>
      </trkpt>
      <trkpt lat="47.34578" lon="4.93731">
        <ele>307.8</ele>
        <time>2016-10-25T12:26:21Z</time>
      </trkpt>
      <trkpt lat="47.34587" lon="4.93725">
        <ele>310.1</ele>
        <time>2016-10-25T12:26:41Z</time>
      </trkpt>
      <trkpt lat="47.34596" lon="4.93719">
        <ele>310.7</ele>
        <time>2016-10-25T12:26:48Z</time>
      </trkpt>
      <trkpt lat="47.34604" lon="4.93713">
        <ele>311.5</ele>
        <time>2016-10-25T12:26:57Z</time>
      </trkpt>
      <trkpt lat="47.34612" lon="4.93705">
        <ele>313.9</ele>
        <time>2016-10-25T12:27:19Z</time>
      </trkpt>
      <trkpt lat="47.3462" lon="4.93698">
        <ele>314.9</ele>
        <time>2016-10-25T12:27:27Z</time>
      </trkpt>
      <trkpt lat="47.34628" lon="4.93691">
        <ele>315.8</ele>
        <time>2016-10-25T12:27:41Z</time>
      </trkpt>
      <trkpt lat="47.34638" lon="4.93686">
        <ele>316.2</ele>
        <time>2016-10-25T12:28:37Z</time>
      </trkpt>
      <trkpt lat="47.34646" lon="4.93679">
        <ele>316.6</ele>
        <time>2016-10-25T12:28:44Z</time>
      </trkpt>
      <trkpt lat="47.34655" lon="4.93675">
        <ele>317.1</ele>
        <time>2016-10-25T12:28:50Z</time>
      </trkpt>
      <trkpt lat="47.34665" lon="4.93675">
        <ele>318.1</ele>
        <time>2016-10-25T12:29:03Z</time>
      </trkpt>
      <trkpt lat="47.34674" lon="4.93672">
        <ele>319.1</ele>
        <time>2016-10-25T12:29:13Z</time>
      </trkpt>
      <trkpt lat="47.34683" lon="4.93666">
        <ele>321.8</ele>
        <time>2016-10-25T12:29:39Z</time>
      </trkpt>
      <trkpt lat="47.34692" lon="4.93661">
        <ele>322.6</ele>
        <time>2016-10-25T12:30:16Z</time>
      </trkpt>
      <trkpt lat="47.34701" lon="4.93653">
        <ele>324.1</ele>
        <time>2016-10-25T12:30:28Z</time>
      </trkpt>
      <trkpt lat="47.3471" lon="4.93647">
        <ele>324.6</ele>
        <time>2016-10-25T12:30:34Z</time>
      </trkpt>
      <trkpt lat="47.34717" lon="4.93638">
        <ele>325.4</ele>
        <time>2016-10-25T12:30:44Z</time>
      </trkpt>
      <trkpt lat="47.34724" lon="4.93628">
        <ele>326.4</ele>
        <time>2016-10-25T12:30:52Z</time>
      </trkpt>
      <trkpt lat="47.34731" lon="4.93616">
        <ele>327.5</ele>
        <time>2016-10-25T12:31:14Z</time>
      </trkpt>
      <trkpt lat="47.34738" lon="4.93606">
        <ele>329.8</ele>
        <time>2016-10-25T12:31:34Z</time>
      </trkpt>
      <trkpt lat="47.34743" lon="4.93595">
        <ele>330.4</ele>
        <time>2016-10-25T12:31:42Z</time>
      </trkpt>
      <trkpt lat="47.34748" lon="4.93584">
        <ele>331.2</ele>
        <time>2016-10-25T12:31:50Z</time>
      </trkpt>
      <trkpt lat="47.34751" lon="4.93571">
        <ele>331.6</ele>
        <time>2016-10-25T12:31:57Z</time>
      </trkpt>
      <trkpt lat="47.34757" lon="4.9356">
        <ele>332.1</ele>
        <time>2016-10-25T12:32:04Z</time>
      </trkpt>
      <trkpt lat="47.34764" lon="4.93552">
        <ele>332.1</ele>
        <time>2016-10-25T12:32:13Z</time>
      </trkpt>
      <trkpt lat="47.34767" lon="4.93537">
        <ele>333.6</ele>
        <time>2016-10-25T12:33:12Z</time>
      </trkpt>
      <trkpt lat="47.3477" lon="4.93525">
        <ele>334.5</ele>
        <time>2016-10-25T12:33:21Z</time>
      </trkpt>
      <trkpt lat="47.34773" lon="4.93512">
        <ele>335.7</ele>
        <time>2016-10-25T12:33:35Z</time>
      </trkpt>
      <trkpt lat="47.34776" lon="4.93499">
        <ele>336.6</ele>
        <time>2016-10-25T12:33:43Z</time>
      </trkpt>
      <trkpt lat="47.3478" lon="4.93485">
        <ele>337.3</ele>
        <time>2016-10-25T12:33:51Z</time>
      </trkpt>
      <trkpt lat="47.34783" lon="4.93473">
        <ele>338.1</ele>
        <time>2016-10-25T12:34:26Z</time>
      </trkpt>
      <trkpt lat="47.34788" lon="4.93461">
        <ele>338.6</ele>
        <time>2016-10-25T12:34:34Z</time>
      </trkpt>
      <trkpt lat="47.34793" lon="4.93449">
        <ele>339.4</ele>
        <time>2016-10-25T12:34:42Z</time>
      </trkpt>
      <trkpt lat="47.34799" lon="4.93439">
        <ele>339.9</ele>
        <time>2016-10-25T12:34:49Z</time>
      </trkpt>
      <trkpt lat="47.34808" lon="4.93431">
        <ele>340.1</ele>
        <time>2016-10-25T12:34:56Z</time>
      </trkpt>
      <trkpt lat="47.34814" lon="4.93421">
        <ele>341</ele>
        <time>2016-10-25T12:35:07Z</time>
      </trkpt>
      <trkpt lat="47.3482" lon="4.93411">
        <ele>341.2</ele>
        <time>2016-10-25T12:35:15Z</time>
      </trkpt>
      <trkpt lat="47.34827" lon="4.934">
        <ele>342</ele>
        <time>2016-10-25T12:35:24Z</time>
      </trkpt>
      <trkpt lat="47.34833" lon="4.93389">
        <ele>342.1</ele>
        <time>2016-10-25T12:35:42Z</time>
      </trkpt>
      <trkpt lat="47.34841" lon="4.93379">
        <ele>341.9</ele>
        <time>2016-10-25T12:35:52Z</time>
      </trkpt>
      <trkpt lat="47.3485" lon="4.93372">
        <ele>342.1</ele>
        <time>2016-10-25T12:35:58Z</time>
      </trkpt>
      <trkpt lat="47.34859" lon="4.93365">
        <ele>342.6</ele>
        <time>2016-10-25T12:36:05Z</time>
      </trkpt>
      <trkpt lat="47.34865" lon="4.93356">
        <ele>343.2</ele>
        <time>2016-10-25T12:36:15Z</time>
      </trkpt>
      <trkpt lat="47.34872" lon="4.93349">
        <ele>344.2</ele>
        <time>2016-10-25T12:36:52Z</time>
      </trkpt>
      <trkpt lat="47.3488" lon="4.93339">
        <ele>344.4</ele>
        <time>2016-10-25T12:37:03Z</time>
      </trkpt>
      <trkpt lat="47.34888" lon="4.93331">
        <ele>344.9</ele>
        <time>2016-10-25T12:37:09Z</time>
      </trkpt>
      <trkpt lat="47.34894" lon="4.93318">
        <ele>345.7</ele>
        <time>2016-10-25T12:37:21Z</time>
      </trkpt>
      <trkpt lat="47.349" lon="4.93309">
        <ele>345.7</ele>
        <time>2016-10-25T12:37:28Z</time>
      </trkpt>
      <trkpt lat="47.34908" lon="4.93302">
        <ele>346.4</ele>
        <time>2016-10-25T12:37:34Z</time>
      </trkpt>
      <trkpt lat="47.34915" lon="4.93293">
        <ele>346.7</ele>
        <time>2016-10-25T12:37:41Z</time>
      </trkpt>
      <trkpt lat="47.34924" lon="4.93287">
        <ele>347.4</ele>
        <time>2016-10-25T12:38:31Z</time>
      </trkpt>
      <trkpt lat="47.34931" lon="4.93279">
        <ele>348.7</ele>
        <time>2016-10-25T12:38:50Z</time>
      </trkpt>
      <trkpt lat="47.34937" lon="4.93268">
        <ele>349.8</ele>
        <time>2016-10-25T12:39:05Z</time>
      </trkpt>
      <trkpt lat="47.34942" lon="4.93257">
        <ele>351.1</ele>
        <time>2016-10-25T12:39:21Z</time>
      </trkpt>
      <trkpt lat="47.34948" lon="4.93246">
        <ele>352.6</ele>
        <time>2016-10-25T12:39:34Z</time>
      </trkpt>
      <trkpt lat="47.34953" lon="4.93234">
        <ele>353</ele>
        <time>2016-10-25T12:39:41Z</time>
      </trkpt>
      <trkpt lat="47.34961" lon="4.93225">
        <ele>353.3</ele>
        <time>2016-10-25T12:39:52Z</time>
      </trkpt>
      <trkpt lat="47.34967" lon="4.93213">
        <ele>353.4</ele>
        <time>2016-10-25T12:40:16Z</time>
      </trkpt>
      <trkpt lat="47.34971" lon="4.93201">
        <ele>354.1</ele>
        <time>2016-10-25T12:40:30Z</time>
      </trkpt>
      <trkpt lat="47.3498" lon="4.93198">
        <ele>355.9</ele>
        <time>2016-10-25T12:40:46Z</time>
      </trkpt>
      <trkpt lat="47.34988" lon="4.93191">
        <ele>356.9</ele>
        <time>2016-10-25T12:40:57Z</time>
      </trkpt>
      <trkpt lat="47.34995" lon="4.93182">
        <ele>358.1</ele>
        <time>2016-10-25T12:41:06Z</time>
      </trkpt>
      <trkpt lat="47.35003" lon="4.93177">
        <ele>358.9</ele>
        <time>2016-10-25T12:41:14Z</time>
      </trkpt>
      <trkpt lat="47.35013" lon="4.9317">
        <ele>360.1</ele>
        <time>2016-10-25T12:42:13Z</time>
      </trkpt>
      <trkpt lat="47.3502" lon="4.93162">
        <ele>361.3</ele>
        <time>2016-10-25T12:42:26Z</time>
      </trkpt>
      <trkpt lat="47.35029" lon="4.93157">
        <ele>362.8</ele>
        <time>2016-10-25T12:42:36Z</time>
      </trkpt>
      <trkpt lat="47.35038" lon="4.93152">
        <ele>364.5</ele>
        <time>2016-10-25T12:42:50Z</time>
      </trkpt>
      <trkpt lat="47.35046" lon="4.93146">
        <ele>366.4</ele>
        <time>2016-10-25T12:43:30Z</time>
      </trkpt>
      <trkpt lat="47.35055" lon="4.93139">
        <ele>368.5</ele>
        <time>2016-10-25T12:43:47Z</time>
      </trkpt>
      <trkpt lat="47.35063" lon="4.93132">
        <ele>370.3</ele>
        <time>2016-10-25T12:44:24Z</time>
      </trkpt>
      <trkpt lat="47.35072" lon="4.93127">
        <ele>372.8</ele>
        <time>2016-10-25T12:44:40Z</time>
      </trkpt>
      <trkpt lat="47.35082" lon="4.93122">
        <ele>375.2</ele>
        <time>2016-10-25T12:45:00Z</time>
      </trkpt>
      <trkpt lat="47.35089" lon="4.93116">
        <ele>377.1</ele>
        <time>2016-10-25T12:45:52Z</time>
      </trkpt>
      <trkpt lat="47.35098" lon="4.93112">
        <ele>378.6</ele>
        <time>2016-10-25T12:46:04Z</time>
      </trkpt>
      <trkpt lat="47.35108" lon="4.93111">
        <ele>379.1</ele>
        <time>2016-10-25T12:46:11Z</time>
      </trkpt>
      <trkpt lat="47.35117" lon="4.93111">
        <ele>379.8</ele>
        <time>2016-10-25T12:46:20Z</time>
      </trkpt>
      <trkpt lat="47.35126" lon="4.93108">
        <ele>380.5</ele>
        <time>2016-10-25T12:46:28Z</time>
      </trkpt>
      <trkpt lat="47.35134" lon="4.93104">
        <ele>381</ele>
        <time>2016-10-25T12:49:30Z</time>
      </trkpt>
      <trkpt lat="47.35143" lon="4.931">
        <ele>381.7</ele>
        <time>2016-10-25T12:49:48Z</time>
      </trkpt>
      <trkpt lat="47.35152" lon="4.93093">
        <ele>382</ele>
        <time>2016-10-25T12:49:57Z</time>
      </trkpt>
      <trkpt lat="47.35161" lon="4.93091">
        <ele>382.4</ele>
        <time>2016-10-25T12:50:06Z</time>
      </trkpt>
      <trkpt lat="47.3517" lon="4.93086">
        <ele>382.8</ele>
        <time>2016-10-25T12:50:31Z</time>
      </trkpt>
      <trkpt lat="47.35168" lon="4.93071">
        <ele>384.7</ele>
        <time>2016-10-25T12:50:53Z</time>
      </trkpt>
      <trkpt lat="47.35166" lon="4.93058">
        <ele>385.5</ele>
        <time>2016-10-25T12:51:04Z</time>
      </trkpt>
      <trkpt lat="47.35161" lon="4.93046">
        <ele>386.9</ele>
        <time>2016-10-25T12:51:13Z</time>
      </trkpt>
      <trkpt lat="47.35156" lon="4.93035">
        <ele>389</ele>
        <time>2016-10-25T12:51:29Z</time>
      </trkpt>
      <trkpt lat="47.35152" lon="4.93022">
        <ele>390.2</ele>
        <time>2016-10-25T12:51:48Z</time>
      </trkpt>
      <trkpt lat="47.35148" lon="4.93008">
        <ele>391.1</ele>
        <time>2016-10-25T12:51:58Z</time>
      </trkpt>
      <trkpt lat="47.35144" lon="4.92995">
        <ele>391.7</ele>
        <time>2016-10-25T12:52:06Z</time>
      </trkpt>
      <trkpt lat="47.35141" lon="4.92983">
        <ele>392.1</ele>
        <time>2016-10-25T12:52:15Z</time>
      </trkpt>
      <trkpt lat="47.35136" lon="4.92971">
        <ele>393.2</ele>
        <time>2016-10-25T12:52:26Z</time>
      </trkpt>
      <trkpt lat="47.35132" lon="4.92958">
        <ele>393.8</ele>
        <time>2016-10-25T12:52:34Z</time>
      </trkpt>
      <trkpt lat="47.35128" lon="4.92946">
        <ele>394</ele>
        <time>2016-10-25T12:52:44Z</time>
      </trkpt>
      <trkpt lat="47.35123" lon="4.92934">
        <ele>394.7</ele>
        <time>2016-10-25T12:52:51Z</time>
      </trkpt>
      <trkpt lat="47.3512" lon="4.92921">
        <ele>395.7</ele>
        <time>2016-10-25T12:53:01Z</time>
      </trkpt>
      <trkpt lat="47.35115" lon="4.92909">
        <ele>395.5</ele>
        <time>2016-10-25T12:53:11Z</time>
      </trkpt>
      <trkpt lat="47.35112" lon="4.92896">
        <ele>395.7</ele>
        <time>2016-10-25T12:53:19Z</time>
      </trkpt>
      <trkpt lat="47.35108" lon="4.92884">
        <ele>395.8</ele>
        <time>2016-10-25T12:53:31Z</time>
      </trkpt>
      <trkpt lat="47.35103" lon="4.92871">
        <ele>395.8</ele>
        <time>2016-10-25T12:53:40Z</time>
      </trkpt>
      <trkpt lat="47.35098" lon="4.92859">
        <ele>395.9</ele>
        <time>2016-10-25T12:53:47Z</time>
      </trkpt>
      <trkpt lat="47.35094" lon="4.92846">
        <ele>395.8</ele>
        <time>2016-10-25T12:53:56Z</time>
      </trkpt>
      <trkpt lat="47.3509" lon="4.92833">
        <ele>395.9</ele>
        <time>2016-10-25T12:54:08Z</time>
      </trkpt>
      <trkpt lat="47.35087" lon="4.9282">
        <ele>395.9</ele>
        <time>2016-10-25T12:54:15Z</time>
      </trkpt>
      <trkpt lat="47.35083" lon="4.92808">
        <ele>395.9</ele>
        <time>2016-10-25T12:54:26Z</time>
      </trkpt>
      <trkpt lat="47.35079" lon="4.92794">
        <ele>395.9</ele>
        <time>2016-10-25T12:54:34Z</time>
      </trkpt>
      <trkpt lat="47.35075" lon="4.92781">
        <ele>395.8</ele>
        <time>2016-10-25T12:54:41Z</time>
      </trkpt>
      <trkpt lat="47.35071" lon="4.92769">
        <ele>395.5</ele>
        <time>2016-10-25T12:54:54Z</time>
      </trkpt>
      <trkpt lat="47.35067" lon="4.92757">
        <ele>395.1</ele>
        <time>2016-10-25T12:55:03Z</time>
      </trkpt>
      <trkpt lat="47.35063" lon="4.92744">
        <ele>395</ele>
        <time>2016-10-25T12:55:21Z</time>
      </trkpt>
      <trkpt lat="47.35057" lon="4.92733">
        <ele>394.2</ele>
        <time>2016-10-25T12:56:01Z</time>
      </trkpt>
      <trkpt lat="47.35053" lon="4.92721">
        <ele>393.7</ele>
        <time>2016-10-25T12:56:08Z</time>
      </trkpt>
      <trkpt lat="47.35049" lon="4.92709">
        <ele>393.9</ele>
        <time>2016-10-25T12:56:16Z</time>
      </trkpt>
      <trkpt lat="47.35043" lon="4.92698">
        <ele>393.2</ele>
        <time>2016-10-25T12:56:26Z</time>
      </trkpt>
      <trkpt lat="47.35035" lon="4.9269">
        <ele>392.2</ele>
        <time>2016-10-25T12:56:37Z</time>
      </trkpt>
      <trkpt lat="47.35027" lon="4.92682">
        <ele>390.9</ele>
        <time>2016-10-25T12:56:47Z</time>
      </trkpt>
      <trkpt lat="47.35019" lon="4.92675">
        <ele>390.8</ele>
        <time>2016-10-25T12:56:55Z</time>
      </trkpt>
      <trkpt lat="47.3501" lon="4.92669">
        <ele>390.5</ele>
        <time>2016-10-25T12:57:01Z</time>
      </trkpt>
      <trkpt lat="47.35001" lon="4.92664">
        <ele>390</ele>
        <time>2016-10-25T12:57:09Z</time>
      </trkpt>
      <trkpt lat="47.34993" lon="4.92656">
        <ele>389.1</ele>
        <time>2016-10-25T12:57:19Z</time>
      </trkpt>
      <trkpt lat="47.34985" lon="4.92649">
        <ele>388.4</ele>
        <time>2016-10-25T12:57:30Z</time>
      </trkpt>
      <trkpt lat="47.34978" lon="4.9264">
        <ele>386.9</ele>
        <time>2016-10-25T12:57:42Z</time>
      </trkpt>
      <trkpt lat="47.34974" lon="4.92627">
        <ele>383.8</ele>
        <time>2016-10-25T12:58:03Z</time>
      </trkpt>
      <trkpt lat="47.34975" lon="4.92614">
        <ele>381.1</ele>
        <time>2016-10-25T12:58:18Z</time>
      </trkpt>
      <trkpt lat="47.34972" lon="4.92599">
        <ele>379.7</ele>
        <time>2016-10-25T12:58:27Z</time>
      </trkpt>
      <trkpt lat="47.34973" lon="4.92585">
        <ele>378.3</ele>
        <time>2016-10-25T12:58:36Z</time>
      </trkpt>
      <trkpt lat="47.34975" lon="4.92572">
        <ele>375.7</ele>
        <time>2016-10-25T12:58:49Z</time>
      </trkpt>
      <trkpt lat="47.34976" lon="4.92559">
        <ele>372.9</ele>
        <time>2016-10-25T12:59:04Z</time>
      </trkpt>
      <trkpt lat="47.34975" lon="4.92545">
        <ele>370</ele>
        <time>2016-10-25T12:59:18Z</time>
      </trkpt>
      <trkpt lat="47.34975" lon="4.92531">
        <ele>369.1</ele>
        <time>2016-10-25T12:59:24Z</time>
      </trkpt>
      <trkpt lat="47.34975" lon="4.92517">
        <ele>366.3</ele>
        <time>2016-10-25T12:59:39Z</time>
      </trkpt>
      <trkpt lat="47.34973" lon="4.92503">
        <ele>364.8</ele>
        <time>2016-10-25T12:59:48Z</time>
      </trkpt>
      <trkpt lat="47.34971" lon="4.92488">
        <ele>363.5</ele>
        <time>2016-10-25T12:59:57Z</time>
      </trkpt>
      <trkpt lat="47.34969" lon="4.92474">
        <ele>362.7</ele>
        <time>2016-10-25T13:00:04Z</time>
      </trkpt>
      <trkpt lat="47.34969" lon="4.92459">
        <ele>361.4</ele>
        <time>2016-10-25T13:00:10Z</time>
      </trkpt>
      <trkpt lat="47.34968" lon="4.92445">
        <ele>360.2</ele>
        <time>2016-10-25T13:00:18Z</time>
      </trkpt>
      <trkpt lat="47.34966" lon="4.92431">
        <ele>358.6</ele>
        <time>2016-10-25T13:00:28Z</time>
      </trkpt>
      <trkpt lat="47.34963" lon="4.92418">
        <ele>357.5</ele>
        <time>2016-10-25T13:00:38Z</time>
      </trkpt>
      <trkpt lat="47.34959" lon="4.92405">
        <ele>356.4</ele>
        <time>2016-10-25T13:00:47Z</time>
      </trkpt>
      <trkpt lat="47.34956" lon="4.92393">
        <ele>355.6</ele>
        <time>2016-10-25T13:01:22Z</time>
      </trkpt>
      <trkpt lat="47.34951" lon="4.92381">
        <ele>354.2</ele>
        <time>2016-10-25T13:01:39Z</time>
      </trkpt>
      <trkpt lat="47.3495" lon="4.92368">
        <ele>352.9</ele>
        <time>2016-10-25T13:01:46Z</time>
      </trkpt>
      <trkpt lat="47.34954" lon="4.92355">
        <ele>352</ele>
        <time>2016-10-25T13:01:54Z</time>
      </trkpt>
      <trkpt lat="47.34955" lon="4.92342">
        <ele>349.8</ele>
        <time>2016-10-25T13:02:10Z</time>
      </trkpt>
      <trkpt lat="47.34953" lon="4.92328">
        <ele>348.5</ele>
        <time>2016-10-25T13:02:19Z</time>
      </trkpt>
      <trkpt lat="47.34951" lon="4.92314">
        <ele>347.6</ele>
        <time>2016-10-25T13:02:26Z</time>
      </trkpt>
      <trkpt lat="47.34952" lon="4.92301">
        <ele>345.5</ele>
        <time>2016-10-25T13:02:42Z</time>
      </trkpt>
      <trkpt lat="47.34948" lon="4.92288">
        <ele>344.3</ele>
        <time>2016-10-25T13:04:51Z</time>
      </trkpt>
      <trkpt lat="47.34951" lon="4.92275">
        <ele>343.1</ele>
        <time>2016-10-25T13:05:25Z</time>
      </trkpt>
      <trkpt lat="47.34952" lon="4.92261">
        <ele>341.6</ele>
        <time>2016-10-25T13:05:36Z</time>
      </trkpt>
      <trkpt lat="47.3495" lon="4.92248">
        <ele>340.8</ele>
        <time>2016-10-25T13:05:43Z</time>
      </trkpt>
      <trkpt lat="47.34948" lon="4.92234">
        <ele>339.3</ele>
        <time>2016-10-25T13:05:54Z</time>
      </trkpt>
      <trkpt lat="47.34951" lon="4.92221">
        <ele>337.7</ele>
        <time>2016-10-25T13:06:07Z</time>
      </trkpt>
      <trkpt lat="47.34954" lon="4.92207">
        <ele>335.4</ele>
        <time>2016-10-25T13:06:20Z</time>
      </trkpt>
      <trkpt lat="47.34951" lon="4.92195">
        <ele>334.4</ele>
        <time>2016-10-25T13:06:26Z</time>
      </trkpt>
      <trkpt lat="47.34951" lon="4.92181">
        <ele>332.2</ele>
        <time>2016-10-25T13:06:42Z</time>
      </trkpt>
      <trkpt lat="47.34954" lon="4.92168">
        <ele>330.4</ele>
        <time>2016-10-25T13:06:53Z</time>
      </trkpt>
      <trkpt lat="47.34951" lon="4.92152">
        <ele>328.4</ele>
        <time>2016-10-25T13:07:03Z</time>
      </trkpt>
      <trkpt lat="47.34946" lon="4.9214">
        <ele>327.1</ele>
        <time>2016-10-25T13:07:13Z</time>
      </trkpt>
      <trkpt lat="47.34939" lon="4.9213">
        <ele>326.5</ele>
        <time>2016-10-25T13:07:20Z</time>
      </trkpt>
      <trkpt lat="47.34929" lon="4.92127">
        <ele>325.9</ele>
        <time>2016-10-25T13:07:27Z</time>
      </trkpt>
      <trkpt lat="47.34921" lon="4.92135">
        <ele>324.9</ele>
        <time>2016-10-25T13:07:37Z</time>
      </trkpt>
      <trkpt lat="47.34913" lon="4.92142">
        <ele>324.7</ele>
        <time>2016-10-25T13:07:45Z</time>
      </trkpt>
      <trkpt lat="47.34905" lon="4.92149">
        <ele>324.7</ele>
        <time>2016-10-25T13:07:51Z</time>
      </trkpt>
      <trkpt lat="47.34897" lon="4.92155">
        <ele>324.6</ele>
        <time>2016-10-25T13:07:59Z</time>
      </trkpt>
      <trkpt lat="47.34889" lon="4.92165">
        <ele>324.1</ele>
        <time>2016-10-25T13:08:09Z</time>
      </trkpt>
      <trkpt lat="47.34883" lon="4.92174">
        <ele>324</ele>
        <time>2016-10-25T13:08:18Z</time>
      </trkpt>
      <trkpt lat="47.34876" lon="4.92185">
        <ele>324</ele>
        <time>2016-10-25T13:08:28Z</time>
      </trkpt>
      <trkpt lat="47.34868" lon="4.92192">
        <ele>323.4</ele>
        <time>2016-10-25T13:08:37Z</time>
      </trkpt>
      <trkpt lat="47.34859" lon="4.92196">
        <ele>322.7</ele>
        <time>2016-10-25T13:08:44Z</time>
      </trkpt>
      <trkpt lat="47.34851" lon="4.92203">
        <ele>322.3</ele>
        <time>2016-10-25T13:08:51Z</time>
      </trkpt>
      <trkpt lat="47.34842" lon="4.92208">
        <ele>322</ele>
        <time>2016-10-25T13:08:59Z</time>
      </trkpt>
      <trkpt lat="47.34835" lon="4.92217">
        <ele>321.9</ele>
        <time>2016-10-25T13:09:09Z</time>
      </trkpt>
      <trkpt lat="47.34826" lon="4.92224">
        <ele>322</ele>
        <time>2016-10-25T13:09:18Z</time>
      </trkpt>
      <trkpt lat="47.34818" lon="4.92231">
        <ele>322</ele>
        <time>2016-10-25T13:09:25Z</time>
      </trkpt>
      <trkpt lat="47.34808" lon="4.92237">
        <ele>321.8</ele>
        <time>2016-10-25T13:09:32Z</time>
      </trkpt>
      <trkpt lat="47.34798" lon="4.92235">
        <ele>321.6</ele>
        <time>2016-10-25T13:09:38Z</time>
      </trkpt>
      <trkpt lat="47.34789" lon="4.92238">
        <ele>321.2</ele>
        <time>2016-10-25T13:09:45Z</time>
      </trkpt>
      <trkpt lat="47.3478" lon="4.92243">
        <ele>321</ele>
        <time>2016-10-25T13:09:52Z</time>
      </trkpt>
      <trkpt lat="47.34771" lon="4.92246">
        <ele>320.4</ele>
        <time>2016-10-25T13:09:59Z</time>
      </trkpt>
      <trkpt lat="47.34762" lon="4.92245">
        <ele>320.5</ele>
        <time>2016-10-25T13:10:08Z</time>
      </trkpt>
      <trkpt lat="47.34752" lon="4.92246">
        <ele>320.4</ele>
        <time>2016-10-25T13:10:17Z</time>
      </trkpt>
      <trkpt lat="47.34743" lon="4.92244">
        <ele>320.2</ele>
        <time>2016-10-25T13:10:24Z</time>
      </trkpt>
      <trkpt lat="47.34733" lon="4.92244">
        <ele>319.9</ele>
        <time>2016-10-25T13:10:33Z</time>
      </trkpt>
      <trkpt lat="47.34723" lon="4.92244">
        <ele>319.9</ele>
        <time>2016-10-25T13:10:41Z</time>
      </trkpt>
      <trkpt lat="47.34713" lon="4.92244">
        <ele>319.6</ele>
        <time>2016-10-25T13:10:49Z</time>
      </trkpt>
      <trkpt lat="47.34704" lon="4.92248">
        <ele>316.4</ele>
        <time>2016-10-25T13:15:27Z</time>
      </trkpt>
      <trkpt lat="47.34695" lon="4.92248">
        <ele>316.2</ele>
        <time>2016-10-25T13:15:35Z</time>
      </trkpt>
      <trkpt lat="47.34685" lon="4.92247">
        <ele>315.7</ele>
        <time>2016-10-25T13:15:43Z</time>
      </trkpt>
      <trkpt lat="47.34676" lon="4.92251">
        <ele>315.2</ele>
        <time>2016-10-25T13:15:51Z</time>
      </trkpt>
      <trkpt lat="47.34666" lon="4.92253">
        <ele>314.8</ele>
        <time>2016-10-25T13:16:00Z</time>
      </trkpt>
      <trkpt lat="47.34656" lon="4.92256">
        <ele>314.1</ele>
        <time>2016-10-25T13:16:08Z</time>
      </trkpt>
      <trkpt lat="47.34647" lon="4.9226">
        <ele>313.6</ele>
        <time>2016-10-25T13:16:17Z</time>
      </trkpt>
      <trkpt lat="47.34638" lon="4.92263">
        <ele>313.2</ele>
        <time>2016-10-25T13:16:26Z</time>
      </trkpt>
      <trkpt lat="47.34629" lon="4.92268">
        <ele>312.7</ele>
        <time>2016-10-25T13:16:35Z</time>
      </trkpt>
      <trkpt lat="47.34619" lon="4.92271">
        <ele>312.7</ele>
        <time>2016-10-25T13:16:43Z</time>
      </trkpt>
      <trkpt lat="47.3461" lon="4.92272">
        <ele>312.4</ele>
        <time>2016-10-25T13:16:50Z</time>
      </trkpt>
      <trkpt lat="47.34601" lon="4.92269">
        <ele>312.3</ele>
        <time>2016-10-25T13:16:57Z</time>
      </trkpt>
      <trkpt lat="47.34594" lon="4.92261">
        <ele>311.9</ele>
        <time>2016-10-25T13:17:05Z</time>
      </trkpt>
      <trkpt lat="47.3459" lon="4.92247">
        <ele>311.8</ele>
        <time>2016-10-25T13:17:14Z</time>
      </trkpt>
      <trkpt lat="47.34588" lon="4.92234">
        <ele>312</ele>
        <time>2016-10-25T13:17:23Z</time>
      </trkpt>
      <trkpt lat="47.34581" lon="4.92224">
        <ele>311.9</ele>
        <time>2016-10-25T13:18:15Z</time>
      </trkpt>
      <trkpt lat="47.34587" lon="4.92214">
        <ele>310.6</ele>
        <time>2016-10-25T13:20:10Z</time>
      </trkpt>
      <trkpt lat="47.34591" lon="4.92202">
        <ele>310.9</ele>
        <time>2016-10-25T13:20:19Z</time>
      </trkpt>
      <trkpt lat="47.34594" lon="4.92188">
        <ele>311.4</ele>
        <time>2016-10-25T13:20:29Z</time>
      </trkpt>
      <trkpt lat="47.346" lon="4.92177">
        <ele>312.6</ele>
        <time>2016-10-25T13:20:39Z</time>
      </trkpt>
      <trkpt lat="47.34601" lon="4.92162">
        <ele>312.9</ele>
        <time>2016-10-25T13:20:49Z</time>
      </trkpt>
      <trkpt lat="47.34603" lon="4.92149">
        <ele>313.1</ele>
        <time>2016-10-25T13:20:57Z</time>
      </trkpt>
      <trkpt lat="47.34607" lon="4.92136">
        <ele>313.2</ele>
        <time>2016-10-25T13:21:05Z</time>
      </trkpt>
      <trkpt lat="47.34608" lon="4.92123">
        <ele>313.5</ele>
        <time>2016-10-25T13:21:15Z</time>
      </trkpt>
      <trkpt lat="47.34608" lon="4.92109">
        <ele>314.1</ele>
        <time>2016-10-25T13:21:24Z</time>
      </trkpt>
      <trkpt lat="47.34608" lon="4.92095">
        <ele>314.3</ele>
        <time>2016-10-25T13:21:35Z</time>
      </trkpt>
      <trkpt lat="47.34608" lon="4.92081">
        <ele>314.6</ele>
        <time>2016-10-25T13:21:45Z</time>
      </trkpt>
      <trkpt lat="47.34607" lon="4.92067">
        <ele>315.1</ele>
        <time>2016-10-25T13:21:55Z</time>
      </trkpt>
      <trkpt lat="47.3461" lon="4.92053">
        <ele>315.6</ele>
        <time>2016-10-25T13:22:05Z</time>
      </trkpt>
      <trkpt lat="47.34611" lon="4.92039">
        <ele>316.6</ele>
        <time>2016-10-25T13:22:15Z</time>
      </trkpt>
      <trkpt lat="47.34608" lon="4.92026">
        <ele>317</ele>
        <time>2016-10-25T13:22:22Z</time>
      </trkpt>
      <trkpt lat="47.34609" lon="4.92012">
        <ele>317.4</ele>
        <time>2016-10-25T13:22:31Z</time>
      </trkpt>
      <trkpt lat="47.34611" lon="4.91999">
        <ele>318.1</ele>
        <time>2016-10-25T13:22:44Z</time>
      </trkpt>
      <trkpt lat="47.34611" lon="4.91985">
        <ele>319.1</ele>
        <time>2016-10-25T13:22:55Z</time>
      </trkpt>
      <trkpt lat="47.34612" lon="4.9197">
        <ele>319.5</ele>
        <time>2016-10-25T13:23:05Z</time>
      </trkpt>
      <trkpt lat="47.34614" lon="4.91956">
        <ele>320.1</ele>
        <time>2016-10-25T13:23:13Z</time>
      </trkpt>
      <trkpt lat="47.34617" lon="4.91942">
        <ele>320.4</ele>
        <time>2016-10-25T13:23:23Z</time>
      </trkpt>
      <trkpt lat="47.34616" lon="4.91928">
        <ele>321</ele>
        <time>2016-10-25T13:23:31Z</time>
      </trkpt>
      <trkpt lat="47.34616" lon="4.91915">
        <ele>321.5</ele>
        <time>2016-10-25T13:23:40Z</time>
      </trkpt>
      <trkpt lat="47.34613" lon="4.91902">
        <ele>321.9</ele>
        <time>2016-10-25T13:23:50Z</time>
      </trkpt>
      <trkpt lat="47.34615" lon="4.91889">
        <ele>322.3</ele>
        <time>2016-10-25T13:24:00Z</time>
      </trkpt>
      <trkpt lat="47.34615" lon="4.91874">
        <ele>322.6</ele>
        <time>2016-10-25T13:24:10Z</time>
      </trkpt>
      <trkpt lat="47.34616" lon="4.91861">
        <ele>323.3</ele>
        <time>2016-10-25T13:24:18Z</time>
      </trkpt>
      <trkpt lat="47.34617" lon="4.91847">
        <ele>323.5</ele>
        <time>2016-10-25T13:24:26Z</time>
      </trkpt>
      <trkpt lat="47.34615" lon="4.91833">
        <ele>323.9</ele>
        <time>2016-10-25T13:24:35Z</time>
      </trkpt>
      <trkpt lat="47.34613" lon="4.9182">
        <ele>323.9</ele>
        <time>2016-10-25T13:24:45Z</time>
      </trkpt>
      <trkpt lat="47.34613" lon="4.91806">
        <ele>324.2</ele>
        <time>2016-10-25T13:24:56Z</time>
      </trkpt>
      <trkpt lat="47.3461" lon="4.91792">
        <ele>324.4</ele>
        <time>2016-10-25T13:25:07Z</time>
      </trkpt>
      <trkpt lat="47.34609" lon="4.91779">
        <ele>325.1</ele>
        <time>2016-10-25T13:25:16Z</time>
      </trkpt>
      <trkpt lat="47.34606" lon="4.91766">
        <ele>325.1</ele>
        <time>2016-10-25T13:25:23Z</time>
      </trkpt>
      <trkpt lat="47.34604" lon="4.91751">
        <ele>325.4</ele>
        <time>2016-10-25T13:25:31Z</time>
      </trkpt>
      <trkpt lat="47.34603" lon="4.91737">
        <ele>325.8</ele>
        <time>2016-10-25T13:25:42Z</time>
      </trkpt>
      <trkpt lat="47.34599" lon="4.91724">
        <ele>326.3</ele>
        <time>2016-10-25T13:25:51Z</time>
      </trkpt>
      <trkpt lat="47.34597" lon="4.91711">
        <ele>326.8</ele>
        <time>2016-10-25T13:26:03Z</time>
      </trkpt>
      <trkpt lat="47.3459" lon="4.917">
        <ele>327.4</ele>
        <time>2016-10-25T13:26:18Z</time>
      </trkpt>
      <trkpt lat="47.34587" lon="4.91687">
        <ele>328.6</ele>
        <time>2016-10-25T13:26:35Z</time>
      </trkpt>
      <trkpt lat="47.34583" lon="4.91674">
        <ele>328.9</ele>
        <time>2016-10-25T13:26:46Z</time>
      </trkpt>
      <trkpt lat="47.34577" lon="4.91662">
        <ele>328.1</ele>
        <time>2016-10-25T13:27:43Z</time>
      </trkpt>
      <trkpt lat="47.34571" lon="4.91651">
        <ele>328.3</ele>
        <time>2016-10-25T13:27:50Z</time>
      </trkpt>
      <trkpt lat="47.34566" lon="4.91639">
        <ele>329.1</ele>
        <time>2016-10-25T13:28:09Z</time>
      </trkpt>
      <trkpt lat="47.34562" lon="4.91625">
        <ele>329.5</ele>
        <time>2016-10-25T13:28:19Z</time>
      </trkpt>
      <trkpt lat="47.34555" lon="4.91615">
        <ele>329.5</ele>
        <time>2016-10-25T13:28:25Z</time>
      </trkpt>
      <trkpt lat="47.34551" lon="4.91603">
        <ele>329.9</ele>
        <time>2016-10-25T13:28:29Z</time>
      </trkpt>
      <trkpt lat="47.34546" lon="4.91591">
        <ele>331</ele>
        <time>2016-10-25T13:28:43Z</time>
      </trkpt>
      <trkpt lat="47.3454" lon="4.91581">
        <ele>331.9</ele>
        <time>2016-10-25T13:28:52Z</time>
      </trkpt>
      <trkpt lat="47.34532" lon="4.91575">
        <ele>333.1</ele>
        <time>2016-10-25T13:29:04Z</time>
      </trkpt>
      <trkpt lat="47.34523" lon="4.91571">
        <ele>333.6</ele>
        <time>2016-10-25T13:29:14Z</time>
      </trkpt>
      <trkpt lat="47.34513" lon="4.91566">
        <ele>334.7</ele>
        <time>2016-10-25T13:29:22Z</time>
      </trkpt>
      <trkpt lat="47.34504" lon="4.91562">
        <ele>335.3</ele>
        <time>2016-10-25T13:29:31Z</time>
      </trkpt>
      <trkpt lat="47.34496" lon="4.91557">
        <ele>336.1</ele>
        <time>2016-10-25T13:29:41Z</time>
      </trkpt>
      <trkpt lat="47.34487" lon="4.91557">
        <ele>337.5</ele>
        <time>2016-10-25T13:29:52Z</time>
      </trkpt>
      <trkpt lat="47.34478" lon="4.91554">
        <ele>338.3</ele>
        <time>2016-10-25T13:30:02Z</time>
      </trkpt>
      <trkpt lat="47.34468" lon="4.91553">
        <ele>339.9</ele>
        <time>2016-10-25T13:31:00Z</time>
      </trkpt>
      <trkpt lat="47.34459" lon="4.91548">
        <ele>341.1</ele>
        <time>2016-10-25T13:31:12Z</time>
      </trkpt>
      <trkpt lat="47.3445" lon="4.9155">
        <ele>342.1</ele>
        <time>2016-10-25T13:31:21Z</time>
      </trkpt>
      <trkpt lat="47.3444" lon="4.91552">
        <ele>343.6</ele>
        <time>2016-10-25T13:31:32Z</time>
      </trkpt>
      <trkpt lat="47.34431" lon="4.91551">
        <ele>345.8</ele>
        <time>2016-10-25T13:32:17Z</time>
      </trkpt>
      <trkpt lat="47.34422" lon="4.91549">
        <ele>347.5</ele>
        <time>2016-10-25T13:32:28Z</time>
      </trkpt>
      <trkpt lat="47.34413" lon="4.91546">
        <ele>349.1</ele>
        <time>2016-10-25T13:32:44Z</time>
      </trkpt>
      <trkpt lat="47.34404" lon="4.91548">
        <ele>350.7</ele>
        <time>2016-10-25T13:33:30Z</time>
      </trkpt>
      <trkpt lat="47.34394" lon="4.91549">
        <ele>352.5</ele>
        <time>2016-10-25T13:33:43Z</time>
      </trkpt>
      <trkpt lat="47.34384" lon="4.91547">
        <ele>353.9</ele>
        <time>2016-10-25T13:33:55Z</time>
      </trkpt>
      <trkpt lat="47.34375" lon="4.91543">
        <ele>356.1</ele>
        <time>2016-10-25T13:34:06Z</time>
      </trkpt>
      <trkpt lat="47.34367" lon="4.91536">
        <ele>356.5</ele>
        <time>2016-10-25T13:34:19Z</time>
      </trkpt>
      <trkpt lat="47.34357" lon="4.91534">
        <ele>357.1</ele>
        <time>2016-10-25T13:42:23Z</time>
      </trkpt>
      <trkpt lat="47.34348" lon="4.9153">
        <ele>357.8</ele>
        <time>2016-10-25T13:42:34Z</time>
      </trkpt>
      <trkpt lat="47.34339" lon="4.91528">
        <ele>359.8</ele>
        <time>2016-10-25T13:42:50Z</time>
      </trkpt>
      <trkpt lat="47.3433" lon="4.91527">
        <ele>361.1</ele>
        <time>2016-10-25T13:43:00Z</time>
      </trkpt>
      <trkpt lat="47.34321" lon="4.91527">
        <ele>362.3</ele>
        <time>2016-10-25T13:43:12Z</time>
      </trkpt>
      <trkpt lat="47.34312" lon="4.91523">
        <ele>363.6</ele>
        <time>2016-10-25T13:43:26Z</time>
      </trkpt>
      <trkpt lat="47.34303" lon="4.91522">
        <ele>365</ele>
        <time>2016-10-25T13:44:24Z</time>
      </trkpt>
      <trkpt lat="47.34293" lon="4.9152">
        <ele>366.6</ele>
        <time>2016-10-25T13:44:34Z</time>
      </trkpt>
      <trkpt lat="47.34284" lon="4.91519">
        <ele>367.4</ele>
        <time>2016-10-25T13:44:42Z</time>
      </trkpt>
      <trkpt lat="47.34275" lon="4.91521">
        <ele>369.5</ele>
        <time>2016-10-25T13:45:20Z</time>
      </trkpt>
      <trkpt lat="47.34265" lon="4.91525">
        <ele>370.2</ele>
        <time>2016-10-25T13:45:29Z</time>
      </trkpt>
      <trkpt lat="47.34256" lon="4.91532">
        <ele>371.2</ele>
        <time>2016-10-25T13:45:37Z</time>
      </trkpt>
      <trkpt lat="47.34248" lon="4.91539">
        <ele>371.9</ele>
        <time>2016-10-25T13:45:46Z</time>
      </trkpt>
      <trkpt lat="47.34241" lon="4.91547">
        <ele>372.7</ele>
        <time>2016-10-25T13:46:20Z</time>
      </trkpt>
      <trkpt lat="47.34233" lon="4.91555">
        <ele>373.2</ele>
        <time>2016-10-25T13:46:28Z</time>
      </trkpt>
      <trkpt lat="47.34226" lon="4.91563">
        <ele>374.4</ele>
        <time>2016-10-25T13:46:38Z</time>
      </trkpt>
      <trkpt lat="47.34217" lon="4.91571">
        <ele>375.9</ele>
        <time>2016-10-25T13:46:48Z</time>
      </trkpt>
      <trkpt lat="47.3421" lon="4.91578">
        <ele>377.5</ele>
        <time>2016-10-25T13:47:18Z</time>
      </trkpt>
      <trkpt lat="47.34202" lon="4.91586">
        <ele>378.2</ele>
        <time>2016-10-25T13:47:36Z</time>
      </trkpt>
      <trkpt lat="47.34193" lon="4.9159">
        <ele>379.7</ele>
        <time>2016-10-25T13:47:48Z</time>
      </trkpt>
      <trkpt lat="47.34184" lon="4.91594">
        <ele>381</ele>
        <time>2016-10-25T13:48:00Z</time>
      </trkpt>
      <trkpt lat="47.34175" lon="4.91596">
        <ele>382.5</ele>
        <time>2016-10-25T13:48:35Z</time>
      </trkpt>
      <trkpt lat="47.34166" lon="4.91595">
        <ele>383.8</ele>
        <time>2016-10-25T13:48:46Z</time>
      </trkpt>
      <trkpt lat="47.34157" lon="4.91594">
        <ele>385.8</ele>
        <time>2016-10-25T13:48:57Z</time>
      </trkpt>
      <trkpt lat="47.34147" lon="4.91593">
        <ele>387</ele>
        <time>2016-10-25T13:49:43Z</time>
      </trkpt>
      <trkpt lat="47.34138" lon="4.91592">
        <ele>388.4</ele>
        <time>2016-10-25T13:49:53Z</time>
      </trkpt>
      <trkpt lat="47.34129" lon="4.91593">
        <ele>389.4</ele>
        <time>2016-10-25T13:50:02Z</time>
      </trkpt>
      <trkpt lat="47.34119" lon="4.91591">
        <ele>390.3</ele>
        <time>2016-10-25T13:50:11Z</time>
      </trkpt>
      <trkpt lat="47.34111" lon="4.91586">
        <ele>391.1</ele>
        <time>2016-10-25T13:50:48Z</time>
      </trkpt>
      <trkpt lat="47.34101" lon="4.91583">
        <ele>391.8</ele>
        <time>2016-10-25T13:50:58Z</time>
      </trkpt>
      <trkpt lat="47.34092" lon="4.91583">
        <ele>392.1</ele>
        <time>2016-10-25T13:51:06Z</time>
      </trkpt>
      <trkpt lat="47.34083" lon="4.91582">
        <ele>392.9</ele>
        <time>2016-10-25T13:51:14Z</time>
      </trkpt>
      <trkpt lat="47.34073" lon="4.9158">
        <ele>393.4</ele>
        <time>2016-10-25T13:51:23Z</time>
      </trkpt>
      <trkpt lat="47.34064" lon="4.9158">
        <ele>393.8</ele>
        <time>2016-10-25T13:51:31Z</time>
      </trkpt>
      <trkpt lat="47.34054" lon="4.91576">
        <ele>394.1</ele>
        <time>2016-10-25T13:51:40Z</time>
      </trkpt>
      <trkpt lat="47.34045" lon="4.91572">
        <ele>394.6</ele>
        <time>2016-10-25T13:52:22Z</time>
      </trkpt>
      <trkpt lat="47.34035" lon="4.91568">
        <ele>395.1</ele>
        <time>2016-10-25T13:52:31Z</time>
      </trkpt>
      <trkpt lat="47.34026" lon="4.91563">
        <ele>395.2</ele>
        <time>2016-10-25T13:52:38Z</time>
      </trkpt>
      <trkpt lat="47.34018" lon="4.91554">
        <ele>396</ele>
        <time>2016-10-25T13:52:46Z</time>
      </trkpt>
      <trkpt lat="47.34012" lon="4.91544">
        <ele>396.6</ele>
        <time>2016-10-25T13:52:59Z</time>
      </trkpt>
      <trkpt lat="47.34005" lon="4.91533">
        <ele>397.2</ele>
        <time>2016-10-25T13:53:07Z</time>
      </trkpt>
      <trkpt lat="47.33998" lon="4.91524">
        <ele>397.1</ele>
        <time>2016-10-25T13:53:13Z</time>
      </trkpt>
      <trkpt lat="47.3399" lon="4.91516">
        <ele>397.4</ele>
        <time>2016-10-25T13:53:22Z</time>
      </trkpt>
      <trkpt lat="47.33982" lon="4.91509">
        <ele>397.4</ele>
        <time>2016-10-25T13:53:30Z</time>
      </trkpt>
      <trkpt lat="47.33973" lon="4.91504">
        <ele>397.7</ele>
        <time>2016-10-25T13:53:41Z</time>
      </trkpt>
      <trkpt lat="47.33963" lon="4.91504">
        <ele>398</ele>
        <time>2016-10-25T13:53:48Z</time>
      </trkpt>
      <trkpt lat="47.33954" lon="4.91503">
        <ele>398</ele>
        <time>2016-10-25T13:53:57Z</time>
      </trkpt>
      <trkpt lat="47.33945" lon="4.91503">
        <ele>398.3</ele>
        <time>2016-10-25T13:54:20Z</time>
      </trkpt>
      <trkpt lat="47.33935" lon="4.91502">
        <ele>398.1</ele>
        <time>2016-10-25T13:54:42Z</time>
      </trkpt>
      <trkpt lat="47.33926" lon="4.91504">
        <ele>398</ele>
        <time>2016-10-25T13:54:53Z</time>
      </trkpt>
      <trkpt lat="47.33916" lon="4.91505">
        <ele>397.7</ele>
        <time>2016-10-25T13:55:04Z</time>
      </trkpt>
      <trkpt lat="47.33907" lon="4.91505">
        <ele>397.6</ele>
        <time>2016-10-25T13:55:15Z</time>
      </trkpt>
      <trkpt lat="47.33897" lon="4.91505">
        <ele>397.6</ele>
        <time>2016-10-25T13:55:25Z</time>
      </trkpt>
      <trkpt lat="47.33887" lon="4.91506">
        <ele>397.5</ele>
        <time>2016-10-25T13:55:33Z</time>
      </trkpt>
      <trkpt lat="47.33878" lon="4.91507">
        <ele>397.3</ele>
        <time>2016-10-25T13:55:41Z</time>
      </trkpt>
      <trkpt lat="47.33868" lon="4.91508">
        <ele>397.1</ele>
        <time>2016-10-25T13:55:51Z</time>
      </trkpt>
      <trkpt lat="47.33858" lon="4.9151">
        <ele>396.9</ele>
        <time>2016-10-25T13:56:01Z</time>
      </trkpt>
      <trkpt lat="47.33849" lon="4.91511">
        <ele>396.9</ele>
        <time>2016-10-25T13:56:11Z</time>
      </trkpt>
      <trkpt lat="47.33839" lon="4.91512">
        <ele>396.4</ele>
        <time>2016-10-25T13:56:20Z</time>
      </trkpt>
      <trkpt lat="47.3383" lon="4.91514">
        <ele>396.2</ele>
        <time>2016-10-25T13:56:28Z</time>
      </trkpt>
      <trkpt lat="47.33821" lon="4.91516">
        <ele>396.3</ele>
        <time>2016-10-25T13:56:38Z</time>
      </trkpt>
      <trkpt lat="47.33811" lon="4.91517">
        <ele>396.1</ele>
        <time>2016-10-25T13:56:48Z</time>
      </trkpt>
      <trkpt lat="47.33802" lon="4.91517">
        <ele>396.2</ele>
        <time>2016-10-25T13:56:57Z</time>
      </trkpt>
      <trkpt lat="47.33792" lon="4.91519">
        <ele>395.8</ele>
        <time>2016-10-25T13:57:06Z</time>
      </trkpt>
      <trkpt lat="47.33783" lon="4.91521">
        <ele>395.9</ele>
        <time>2016-10-25T13:57:13Z</time>
      </trkpt>
      <trkpt lat="47.33774" lon="4.91521">
        <ele>395.5</ele>
        <time>2016-10-25T13:57:21Z</time>
      </trkpt>
      <trkpt lat="47.33764" lon="4.91523">
        <ele>395.3</ele>
        <time>2016-10-25T13:57:30Z</time>
      </trkpt>
      <trkpt lat="47.33754" lon="4.91523">
        <ele>395.2</ele>
        <time>2016-10-25T13:57:40Z</time>
      </trkpt>
      <trkpt lat="47.33744" lon="4.91524">
        <ele>395</ele>
        <time>2016-10-25T13:57:49Z</time>
      </trkpt>
      <trkpt lat="47.33735" lon="4.91528">
        <ele>395.1</ele>
        <time>2016-10-25T13:57:57Z</time>
      </trkpt>
      <trkpt lat="47.33725" lon="4.9153">
        <ele>395.4</ele>
        <time>2016-10-25T13:58:06Z</time>
      </trkpt>
      <trkpt lat="47.33715" lon="4.9153">
        <ele>395.1</ele>
        <time>2016-10-25T13:58:14Z</time>
      </trkpt>
      <trkpt lat="47.33706" lon="4.91528">
        <ele>395</ele>
        <time>2016-10-25T13:58:21Z</time>
      </trkpt>
      <trkpt lat="47.33697" lon="4.91528">
        <ele>394.6</ele>
        <time>2016-10-25T13:58:30Z</time>
      </trkpt>
      <trkpt lat="47.33687" lon="4.9153">
        <ele>394.5</ele>
        <time>2016-10-25T13:58:42Z</time>
      </trkpt>
      <trkpt lat="47.33677" lon="4.91535">
        <ele>394.2</ele>
        <time>2016-10-25T13:58:51Z</time>
      </trkpt>
      <trkpt lat="47.33668" lon="4.91538">
        <ele>393.7</ele>
        <time>2016-10-25T13:58:58Z</time>
      </trkpt>
      <trkpt lat="47.33659" lon="4.91542">
        <ele>393.5</ele>
        <time>2016-10-25T13:59:06Z</time>
      </trkpt>
      <trkpt lat="47.33649" lon="4.91547">
        <ele>393.2</ele>
        <time>2016-10-25T13:59:12Z</time>
      </trkpt>
      <trkpt lat="47.33641" lon="4.91551">
        <ele>393.1</ele>
        <time>2016-10-25T13:59:19Z</time>
      </trkpt>
      <trkpt lat="47.33632" lon="4.91556">
        <ele>392.7</ele>
        <time>2016-10-25T13:59:27Z</time>
      </trkpt>
      <trkpt lat="47.33623" lon="4.9156">
        <ele>392.5</ele>
        <time>2016-10-25T13:59:36Z</time>
      </trkpt>
      <trkpt lat="47.33614" lon="4.91564">
        <ele>392.2</ele>
        <time>2016-10-25T13:59:46Z</time>
      </trkpt>
      <trkpt lat="47.33606" lon="4.9157">
        <ele>392</ele>
        <time>2016-10-25T13:59:53Z</time>
      </trkpt>
      <trkpt lat="47.33597" lon="4.91576">
        <ele>392.1</ele>
        <time>2016-10-25T14:00:01Z</time>
      </trkpt>
      <trkpt lat="47.33588" lon="4.91581">
        <ele>392</ele>
        <time>2016-10-25T14:00:12Z</time>
      </trkpt>
      <trkpt lat="47.33579" lon="4.91588">
        <ele>391.9</ele>
        <time>2016-10-25T14:00:19Z</time>
      </trkpt>
      <trkpt lat="47.3357" lon="4.91595">
        <ele>391.7</ele>
        <time>2016-10-25T14:00:30Z</time>
      </trkpt>
      <trkpt lat="47.33563" lon="4.91603">
        <ele>391.7</ele>
        <time>2016-10-25T14:00:37Z</time>
      </trkpt>
      <trkpt lat="47.33555" lon="4.91611">
        <ele>391.8</ele>
        <time>2016-10-25T14:00:44Z</time>
      </trkpt>
      <trkpt lat="47.33547" lon="4.91619">
        <ele>392</ele>
        <time>2016-10-25T14:00:51Z</time>
      </trkpt>
      <trkpt lat="47.3354" lon="4.91628">
        <ele>391.7</ele>
        <time>2016-10-25T14:01:00Z</time>
      </trkpt>
      <trkpt lat="47.33534" lon="4.91639">
        <ele>391.4</ele>
        <time>2016-10-25T14:01:13Z</time>
      </trkpt>
      <trkpt lat="47.33532" lon="4.91654">
        <ele>390.8</ele>
        <time>2016-10-25T14:01:26Z</time>
      </trkpt>
      <trkpt lat="47.33531" lon="4.91667">
        <ele>390.2</ele>
        <time>2016-10-25T14:01:34Z</time>
      </trkpt>
      <trkpt lat="47.3353" lon="4.91682">
        <ele>389.6</ele>
        <time>2016-10-25T14:01:43Z</time>
      </trkpt>
      <trkpt lat="47.3353" lon="4.91695">
        <ele>389.3</ele>
        <time>2016-10-25T14:01:52Z</time>
      </trkpt>
      <trkpt lat="47.3353" lon="4.91709">
        <ele>388.6</ele>
        <time>2016-10-25T14:02:01Z</time>
      </trkpt>
      <trkpt lat="47.3353" lon="4.91723">
        <ele>388</ele>
        <time>2016-10-25T14:02:10Z</time>
      </trkpt>
      <trkpt lat="47.33531" lon="4.91737">
        <ele>387</ele>
        <time>2016-10-25T14:02:19Z</time>
      </trkpt>
      <trkpt lat="47.33531" lon="4.91751">
        <ele>386.4</ele>
        <time>2016-10-25T14:02:27Z</time>
      </trkpt>
      <trkpt lat="47.33531" lon="4.91765">
        <ele>385.9</ele>
        <time>2016-10-25T14:02:34Z</time>
      </trkpt>
      <trkpt lat="47.33531" lon="4.91779">
        <ele>385.3</ele>
        <time>2016-10-25T14:02:43Z</time>
      </trkpt>
      <trkpt lat="47.33531" lon="4.91793">
        <ele>384.4</ele>
        <time>2016-10-25T14:02:52Z</time>
      </trkpt>
      <trkpt lat="47.33531" lon="4.91807">
        <ele>383.9</ele>
        <time>2016-10-25T14:03:00Z</time>
      </trkpt>
      <trkpt lat="47.33531" lon="4.9182">
        <ele>383.1</ele>
        <time>2016-10-25T14:03:08Z</time>
      </trkpt>
      <trkpt lat="47.33531" lon="4.91834">
        <ele>382.4</ele>
        <time>2016-10-25T14:03:17Z</time>
      </trkpt>
      <trkpt lat="47.33531" lon="4.91848">
        <ele>381.8</ele>
        <time>2016-10-25T14:03:25Z</time>
      </trkpt>
      <trkpt lat="47.3353" lon="4.91862">
        <ele>381.7</ele>
        <time>2016-10-25T14:03:34Z</time>
      </trkpt>
      <trkpt lat="47.3353" lon="4.91876">
        <ele>381.4</ele>
        <time>2016-10-25T14:03:42Z</time>
      </trkpt>
      <trkpt lat="47.3353" lon="4.9189">
        <ele>381.4</ele>
        <time>2016-10-25T14:03:50Z</time>
      </trkpt>
      <trkpt lat="47.3353" lon="4.91904">
        <ele>380.8</ele>
        <time>2016-10-25T14:03:59Z</time>
      </trkpt>
      <trkpt lat="47.3353" lon="4.91918">
        <ele>380.8</ele>
        <time>2016-10-25T14:04:07Z</time>
      </trkpt>
      <trkpt lat="47.3353" lon="4.91931">
        <ele>380.6</ele>
        <time>2016-10-25T14:04:15Z</time>
      </trkpt>
      <trkpt lat="47.33531" lon="4.91945">
        <ele>380.5</ele>
        <time>2016-10-25T14:04:24Z</time>
      </trkpt>
      <trkpt lat="47.33532" lon="4.91959">
        <ele>380.2</ele>
        <time>2016-10-25T14:04:33Z</time>
      </trkpt>
      <trkpt lat="47.33532" lon="4.91974">
        <ele>380.1</ele>
        <time>2016-10-25T14:04:42Z</time>
      </trkpt>
      <trkpt lat="47.33533" lon="4.91988">
        <ele>380.1</ele>
        <time>2016-10-25T14:04:50Z</time>
      </trkpt>
      <trkpt lat="47.33533" lon="4.92002">
        <ele>380.3</ele>
        <time>2016-10-25T14:04:58Z</time>
      </trkpt>
      <trkpt lat="47.33533" lon="4.92017">
        <ele>380.2</ele>
        <time>2016-10-25T14:05:07Z</time>
      </trkpt>
      <trkpt lat="47.33534" lon="4.92032">
        <ele>380.3</ele>
        <time>2016-10-25T14:05:15Z</time>
      </trkpt>
      <trkpt lat="47.33535" lon="4.92046">
        <ele>380.4</ele>
        <time>2016-10-25T14:05:23Z</time>
      </trkpt>
      <trkpt lat="47.33535" lon="4.9206">
        <ele>380.1</ele>
        <time>2016-10-25T14:05:31Z</time>
      </trkpt>
      <trkpt lat="47.33535" lon="4.92075">
        <ele>380.5</ele>
        <time>2016-10-25T14:05:39Z</time>
      </trkpt>
      <trkpt lat="47.33535" lon="4.92088">
        <ele>380.5</ele>
        <time>2016-10-25T14:05:46Z</time>
      </trkpt>
      <trkpt lat="47.33535" lon="4.92102">
        <ele>380.9</ele>
        <time>2016-10-25T14:05:54Z</time>
      </trkpt>
      <trkpt lat="47.33535" lon="4.92116">
        <ele>381.1</ele>
        <time>2016-10-25T14:06:02Z</time>
      </trkpt>
      <trkpt lat="47.33536" lon="4.9213">
        <ele>380.9</ele>
        <time>2016-10-25T14:06:10Z</time>
      </trkpt>
      <trkpt lat="47.33536" lon="4.92144">
        <ele>381.2</ele>
        <time>2016-10-25T14:06:17Z</time>
      </trkpt>
      <trkpt lat="47.33536" lon="4.92157">
        <ele>381.7</ele>
        <time>2016-10-25T14:06:24Z</time>
      </trkpt>
      <trkpt lat="47.33536" lon="4.92171">
        <ele>381.6</ele>
        <time>2016-10-25T14:06:32Z</time>
      </trkpt>
      <trkpt lat="47.33536" lon="4.92186">
        <ele>382.1</ele>
        <time>2016-10-25T14:06:41Z</time>
      </trkpt>
      <trkpt lat="47.33537" lon="4.922">
        <ele>382.1</ele>
        <time>2016-10-25T14:06:50Z</time>
      </trkpt>
      <trkpt lat="47.33537" lon="4.92215">
        <ele>382.2</ele>
        <time>2016-10-25T14:06:59Z</time>
      </trkpt>
      <trkpt lat="47.33537" lon="4.92228">
        <ele>382.7</ele>
        <time>2016-10-25T14:07:07Z</time>
      </trkpt>
      <trkpt lat="47.33536" lon="4.92242">
        <ele>382.9</ele>
        <time>2016-10-25T14:07:19Z</time>
      </trkpt>
      <trkpt lat="47.33535" lon="4.92255">
        <ele>383.7</ele>
        <time>2016-10-25T14:08:40Z</time>
      </trkpt>
      <trkpt lat="47.33534" lon="4.92269">
        <ele>383.6</ele>
        <time>2016-10-25T14:08:51Z</time>
      </trkpt>
      <trkpt lat="47.33536" lon="4.92283">
        <ele>383.5</ele>
        <time>2016-10-25T14:09:00Z</time>
      </trkpt>
      <trkpt lat="47.33538" lon="4.92297">
        <ele>383.7</ele>
        <time>2016-10-25T14:09:09Z</time>
      </trkpt>
      <trkpt lat="47.33541" lon="4.9231">
        <ele>383.7</ele>
        <time>2016-10-25T14:09:23Z</time>
      </trkpt>
      <trkpt lat="47.33543" lon="4.92323">
        <ele>384.2</ele>
        <time>2016-10-25T14:09:34Z</time>
      </trkpt>
      <trkpt lat="47.33543" lon="4.92338">
        <ele>384</ele>
        <time>2016-10-25T14:09:41Z</time>
      </trkpt>
      <trkpt lat="47.33546" lon="4.92351">
        <ele>384.3</ele>
        <time>2016-10-25T14:09:50Z</time>
      </trkpt>
      <trkpt lat="47.33548" lon="4.92364">
        <ele>384.4</ele>
        <time>2016-10-25T14:09:59Z</time>
      </trkpt>
      <trkpt lat="47.3355" lon="4.92378">
        <ele>384.3</ele>
        <time>2016-10-25T14:10:08Z</time>
      </trkpt>
      <trkpt lat="47.33551" lon="4.92392">
        <ele>384.4</ele>
        <time>2016-10-25T14:10:15Z</time>
      </trkpt>
      <trkpt lat="47.33553" lon="4.92405">
        <ele>384.8</ele>
        <time>2016-10-25T14:10:23Z</time>
      </trkpt>
      <trkpt lat="47.33556" lon="4.92419">
        <ele>384.6</ele>
        <time>2016-10-25T14:10:34Z</time>
      </trkpt>
      <trkpt lat="47.33556" lon="4.92432">
        <ele>384.2</ele>
        <time>2016-10-25T14:10:45Z</time>
      </trkpt>
      <trkpt lat="47.33556" lon="4.92447">
        <ele>384.2</ele>
        <time>2016-10-25T14:10:57Z</time>
      </trkpt>
      <trkpt lat="47.33556" lon="4.9246">
        <ele>383.7</ele>
        <time>2016-10-25T14:11:06Z</time>
      </trkpt>
      <trkpt lat="47.33554" lon="4.92474">
        <ele>383.5</ele>
        <time>2016-10-25T14:11:14Z</time>
      </trkpt>
      <trkpt lat="47.33551" lon="4.92487">
        <ele>383.5</ele>
        <time>2016-10-25T14:11:24Z</time>
      </trkpt>
      <trkpt lat="47.3355" lon="4.925">
        <ele>383.1</ele>
        <time>2016-10-25T14:11:39Z</time>
      </trkpt>
      <trkpt lat="47.33547" lon="4.92513">
        <ele>382.8</ele>
        <time>2016-10-25T14:11:50Z</time>
      </trkpt>
      <trkpt lat="47.33549" lon="4.92527">
        <ele>382.4</ele>
        <time>2016-10-25T14:12:04Z</time>
      </trkpt>
      <trkpt lat="47.33552" lon="4.92541">
        <ele>382</ele>
        <time>2016-10-25T14:12:24Z</time>
      </trkpt>
      <trkpt lat="47.33551" lon="4.92555">
        <ele>382</ele>
        <time>2016-10-25T14:12:38Z</time>
      </trkpt>
      <trkpt lat="47.33551" lon="4.92569">
        <ele>381.6</ele>
        <time>2016-10-25T14:13:00Z</time>
      </trkpt>
      <trkpt lat="47.33556" lon="4.9258">
        <ele>381.3</ele>
        <time>2016-10-25T14:13:18Z</time>
      </trkpt>
      <trkpt lat="47.33559" lon="4.92593">
        <ele>381</ele>
        <time>2016-10-25T14:13:32Z</time>
      </trkpt>
      <trkpt lat="47.3356" lon="4.92607">
        <ele>380.6</ele>
        <time>2016-10-25T14:13:43Z</time>
      </trkpt>
      <trkpt lat="47.33563" lon="4.92621">
        <ele>380.2</ele>
        <time>2016-10-25T14:13:53Z</time>
      </trkpt>
      <trkpt lat="47.33563" lon="4.92636">
        <ele>379.9</ele>
        <time>2016-10-25T14:14:01Z</time>
      </trkpt>
      <trkpt lat="47.33562" lon="4.92651">
        <ele>379.9</ele>
        <time>2016-10-25T14:14:07Z</time>
      </trkpt>
      <trkpt lat="47.33564" lon="4.92665">
        <ele>380</ele>
        <time>2016-10-25T14:14:12Z</time>
      </trkpt>
      <trkpt lat="47.33564" lon="4.92679">
        <ele>380.3</ele>
        <time>2016-10-25T14:14:18Z</time>
      </trkpt>
      <trkpt lat="47.33564" lon="4.92693">
        <ele>379.4</ele>
        <time>2016-10-25T14:15:00Z</time>
      </trkpt>
      <trkpt lat="47.33565" lon="4.92707">
        <ele>378.9</ele>
        <time>2016-10-25T14:15:11Z</time>
      </trkpt>
      <trkpt lat="47.33563" lon="4.9272">
        <ele>378.6</ele>
        <time>2016-10-25T14:15:19Z</time>
      </trkpt>
      <trkpt lat="47.33562" lon="4.92736">
        <ele>378.4</ele>
        <time>2016-10-25T14:15:30Z</time>
      </trkpt>
      <trkpt lat="47.33559" lon="4.92749">
        <ele>377.8</ele>
        <time>2016-10-25T14:15:41Z</time>
      </trkpt>
      <trkpt lat="47.33558" lon="4.92763">
        <ele>377.6</ele>
        <time>2016-10-25T14:15:47Z</time>
      </trkpt>
      <trkpt lat="47.33558" lon="4.92777">
        <ele>377.7</ele>
        <time>2016-10-25T14:15:54Z</time>
      </trkpt>
      <trkpt lat="47.33555" lon="4.92792">
        <ele>377.2</ele>
        <time>2016-10-25T14:16:02Z</time>
      </trkpt>
      <trkpt lat="47.33554" lon="4.92805">
        <ele>376.3</ele>
        <time>2016-10-25T14:16:08Z</time>
      </trkpt>
      <trkpt lat="47.33552" lon="4.92819">
        <ele>376.2</ele>
        <time>2016-10-25T14:16:15Z</time>
      </trkpt>
      <trkpt lat="47.3355" lon="4.92833">
        <ele>376.3</ele>
        <time>2016-10-25T14:16:23Z</time>
      </trkpt>
      <trkpt lat="47.33549" lon="4.92847">
        <ele>375.9</ele>
        <time>2016-10-25T14:16:31Z</time>
      </trkpt>
      <trkpt lat="47.33549" lon="4.92861">
        <ele>375.7</ele>
        <time>2016-10-25T14:16:40Z</time>
      </trkpt>
      <trkpt lat="47.33548" lon="4.92875">
        <ele>375.7</ele>
        <time>2016-10-25T14:16:49Z</time>
      </trkpt>
      <trkpt lat="47.33549" lon="4.92889">
        <ele>375.2</ele>
        <time>2016-10-25T14:17:02Z</time>
      </trkpt>
      <trkpt lat="47.3355" lon="4.92903">
        <ele>375</ele>
        <time>2016-10-25T14:17:12Z</time>
      </trkpt>
      <trkpt lat="47.33546" lon="4.92917">
        <ele>374.8</ele>
        <time>2016-10-25T14:17:22Z</time>
      </trkpt>
      <trkpt lat="47.33543" lon="4.9293">
        <ele>374.4</ele>
        <time>2016-10-25T14:17:29Z</time>
      </trkpt>
      <trkpt lat="47.33538" lon="4.92941">
        <ele>374</ele>
        <time>2016-10-25T14:17:36Z</time>
      </trkpt>
      <trkpt lat="47.33531" lon="4.92952">
        <ele>374.1</ele>
        <time>2016-10-25T14:17:43Z</time>
      </trkpt>
      <trkpt lat="47.33525" lon="4.92962">
        <ele>373.5</ele>
        <time>2016-10-25T14:17:52Z</time>
      </trkpt>
      <trkpt lat="47.33517" lon="4.92972">
        <ele>373.5</ele>
        <time>2016-10-25T14:17:59Z</time>
      </trkpt>
      <trkpt lat="47.3351" lon="4.92983">
        <ele>373.2</ele>
        <time>2016-10-25T14:18:08Z</time>
      </trkpt>
      <trkpt lat="47.33501" lon="4.9299">
        <ele>372.5</ele>
        <time>2016-10-25T14:18:14Z</time>
      </trkpt>
      <trkpt lat="47.33492" lon="4.92996">
        <ele>372.4</ele>
        <time>2016-10-25T14:18:19Z</time>
      </trkpt>
      <trkpt lat="47.33483" lon="4.93001">
        <ele>372.4</ele>
        <time>2016-10-25T14:18:26Z</time>
      </trkpt>
      <trkpt lat="47.33475" lon="4.93009">
        <ele>372.2</ele>
        <time>2016-10-25T14:18:35Z</time>
      </trkpt>
      <trkpt lat="47.33467" lon="4.93017">
        <ele>371.9</ele>
        <time>2016-10-25T14:18:42Z</time>
      </trkpt>
      <trkpt lat="47.3346" lon="4.93027">
        <ele>371.6</ele>
        <time>2016-10-25T14:18:49Z</time>
      </trkpt>
      <trkpt lat="47.33452" lon="4.93034">
        <ele>371.2</ele>
        <time>2016-10-25T14:18:57Z</time>
      </trkpt>
      <trkpt lat="47.33443" lon="4.9304">
        <ele>370.5</ele>
        <time>2016-10-25T14:19:05Z</time>
      </trkpt>
      <trkpt lat="47.33435" lon="4.93046">
        <ele>370</ele>
        <time>2016-10-25T14:19:12Z</time>
      </trkpt>
      <trkpt lat="47.33426" lon="4.9305">
        <ele>369.6</ele>
        <time>2016-10-25T14:19:20Z</time>
      </trkpt>
      <trkpt lat="47.33418" lon="4.93054">
        <ele>368.8</ele>
        <time>2016-10-25T14:19:30Z</time>
      </trkpt>
      <trkpt lat="47.33408" lon="4.93056">
        <ele>368.5</ele>
        <time>2016-10-25T14:19:39Z</time>
      </trkpt>
      <trkpt lat="47.33405" lon="4.93068">
        <ele>367.6</ele>
        <time>2016-10-25T14:22:04Z</time>
      </trkpt>
      <trkpt lat="47.33396" lon="4.9307">
        <ele>367.3</ele>
        <time>2016-10-25T14:22:35Z</time>
      </trkpt>
      <trkpt lat="47.33389" lon="4.93079">
        <ele>366.3</ele>
        <time>2016-10-25T14:22:50Z</time>
      </trkpt>
      <trkpt lat="47.33381" lon="4.93084">
        <ele>365.4</ele>
        <time>2016-10-25T14:23:00Z</time>
      </trkpt>
      <trkpt lat="47.33374" lon="4.93093">
        <ele>365.1</ele>
        <time>2016-10-25T14:23:10Z</time>
      </trkpt>
      <trkpt lat="47.33368" lon="4.93104">
        <ele>364</ele>
        <time>2016-10-25T14:23:22Z</time>
      </trkpt>
      <trkpt lat="47.33363" lon="4.93116">
        <ele>363.5</ele>
        <time>2016-10-25T14:23:30Z</time>
      </trkpt>
      <trkpt lat="47.33357" lon="4.93126">
        <ele>362.6</ele>
        <time>2016-10-25T14:23:39Z</time>
      </trkpt>
      <trkpt lat="47.33351" lon="4.93139">
        <ele>361.6</ele>
        <time>2016-10-25T14:23:48Z</time>
      </trkpt>
      <trkpt lat="47.33347" lon="4.9315">
        <ele>360.7</ele>
        <time>2016-10-25T14:23:55Z</time>
      </trkpt>
      <trkpt lat="47.33342" lon="4.93163">
        <ele>359.9</ele>
        <time>2016-10-25T14:24:03Z</time>
      </trkpt>
      <trkpt lat="47.33337" lon="4.93175">
        <ele>359</ele>
        <time>2016-10-25T14:24:12Z</time>
      </trkpt>
      <trkpt lat="47.33331" lon="4.93188">
        <ele>358.4</ele>
        <time>2016-10-25T14:24:19Z</time>
      </trkpt>
      <trkpt lat="47.33327" lon="4.93201">
        <ele>357.5</ele>
        <time>2016-10-25T14:24:26Z</time>
      </trkpt>
      <trkpt lat="47.33325" lon="4.93215">
        <ele>356.3</ele>
        <time>2016-10-25T14:24:34Z</time>
      </trkpt>
      <trkpt lat="47.33326" lon="4.9323">
        <ele>354.9</ele>
        <time>2016-10-25T14:24:42Z</time>
      </trkpt>
      <trkpt lat="47.33324" lon="4.93244">
        <ele>353.4</ele>
        <time>2016-10-25T14:24:52Z</time>
      </trkpt>
      <trkpt lat="47.3332" lon="4.93257">
        <ele>352.6</ele>
        <time>2016-10-25T14:24:59Z</time>
      </trkpt>
      <trkpt lat="47.33316" lon="4.93271">
        <ele>351.5</ele>
        <time>2016-10-25T14:25:08Z</time>
      </trkpt>
      <trkpt lat="47.33313" lon="4.93284">
        <ele>350.7</ele>
        <time>2016-10-25T14:25:16Z</time>
      </trkpt>
      <trkpt lat="47.33311" lon="4.93297">
        <ele>349.3</ele>
        <time>2016-10-25T14:25:24Z</time>
      </trkpt>
      <trkpt lat="47.33309" lon="4.93311">
        <ele>348</ele>
        <time>2016-10-25T14:25:34Z</time>
      </trkpt>
      <trkpt lat="47.33308" lon="4.93325">
        <ele>347.1</ele>
        <time>2016-10-25T14:25:42Z</time>
      </trkpt>
      <trkpt lat="47.33311" lon="4.93338">
        <ele>346</ele>
        <time>2016-10-25T14:25:50Z</time>
      </trkpt>
      <trkpt lat="47.33318" lon="4.93348">
        <ele>344.4</ele>
        <time>2016-10-25T14:26:02Z</time>
      </trkpt>
      <trkpt lat="47.33322" lon="4.93361">
        <ele>343.4</ele>
        <time>2016-10-25T14:26:10Z</time>
      </trkpt>
      <trkpt lat="47.33328" lon="4.93372">
        <ele>342.7</ele>
        <time>2016-10-25T14:26:17Z</time>
      </trkpt>
      <trkpt lat="47.33334" lon="4.93382">
        <ele>341.6</ele>
        <time>2016-10-25T14:26:26Z</time>
      </trkpt>
      <trkpt lat="47.3334" lon="4.93394">
        <ele>340.5</ele>
        <time>2016-10-25T14:26:38Z</time>
      </trkpt>
      <trkpt lat="47.33348" lon="4.934">
        <ele>339.9</ele>
        <time>2016-10-25T14:26:46Z</time>
      </trkpt>
      <trkpt lat="47.3335" lon="4.93413">
        <ele>339.2</ele>
        <time>2016-10-25T14:26:53Z</time>
      </trkpt>
      <trkpt lat="47.33355" lon="4.93425">
        <ele>338</ele>
        <time>2016-10-25T14:27:05Z</time>
      </trkpt>
      <trkpt lat="47.33361" lon="4.93435">
        <ele>337.3</ele>
        <time>2016-10-25T14:27:13Z</time>
      </trkpt>
      <trkpt lat="47.33368" lon="4.93446">
        <ele>335.9</ele>
        <time>2016-10-25T14:27:21Z</time>
      </trkpt>
      <trkpt lat="47.33375" lon="4.93455">
        <ele>335.2</ele>
        <time>2016-10-25T14:27:30Z</time>
      </trkpt>
      <trkpt lat="47.33383" lon="4.93463">
        <ele>334.2</ele>
        <time>2016-10-25T14:27:40Z</time>
      </trkpt>
      <trkpt lat="47.33389" lon="4.93475">
        <ele>333.6</ele>
        <time>2016-10-25T14:27:47Z</time>
      </trkpt>
      <trkpt lat="47.33393" lon="4.93488">
        <ele>333.1</ele>
        <time>2016-10-25T14:27:54Z</time>
      </trkpt>
      <trkpt lat="47.33397" lon="4.935">
        <ele>331.7</ele>
        <time>2016-10-25T14:28:04Z</time>
      </trkpt>
      <trkpt lat="47.33402" lon="4.93511">
        <ele>331.2</ele>
        <time>2016-10-25T14:28:13Z</time>
      </trkpt>
      <trkpt lat="47.33409" lon="4.93522">
        <ele>330.4</ele>
        <time>2016-10-25T14:28:21Z</time>
      </trkpt>
      <trkpt lat="47.33414" lon="4.93534">
        <ele>329.5</ele>
        <time>2016-10-25T14:28:29Z</time>
      </trkpt>
      <trkpt lat="47.3342" lon="4.93546">
        <ele>328.5</ele>
        <time>2016-10-25T14:28:38Z</time>
      </trkpt>
      <trkpt lat="47.33426" lon="4.93555">
        <ele>327.4</ele>
        <time>2016-10-25T14:28:47Z</time>
      </trkpt>
      <trkpt lat="47.33433" lon="4.93565">
        <ele>326.9</ele>
        <time>2016-10-25T14:28:56Z</time>
      </trkpt>
      <trkpt lat="47.33439" lon="4.93575">
        <ele>326.4</ele>
        <time>2016-10-25T14:29:05Z</time>
      </trkpt>
      <trkpt lat="47.33445" lon="4.93586">
        <ele>325.3</ele>
        <time>2016-10-25T14:29:14Z</time>
      </trkpt>
      <trkpt lat="47.33452" lon="4.93597">
        <ele>324.6</ele>
        <time>2016-10-25T14:29:23Z</time>
      </trkpt>
      <trkpt lat="47.33457" lon="4.93609">
        <ele>323.3</ele>
        <time>2016-10-25T14:29:32Z</time>
      </trkpt>
      <trkpt lat="47.33461" lon="4.93621">
        <ele>321.8</ele>
        <time>2016-10-25T14:29:44Z</time>
      </trkpt>
      <trkpt lat="47.33465" lon="4.93635">
        <ele>320.8</ele>
        <time>2016-10-25T14:29:57Z</time>
      </trkpt>
      <trkpt lat="47.33471" lon="4.93646">
        <ele>318</ele>
        <time>2016-10-25T14:30:15Z</time>
      </trkpt>
      <trkpt lat="47.33477" lon="4.93657">
        <ele>317</ele>
        <time>2016-10-25T14:30:25Z</time>
      </trkpt>
      <trkpt lat="47.33484" lon="4.93666">
        <ele>315.9</ele>
        <time>2016-10-25T14:30:33Z</time>
      </trkpt>
      <trkpt lat="47.33487" lon="4.93679">
        <ele>315.1</ele>
        <time>2016-10-25T14:30:39Z</time>
      </trkpt>
      <trkpt lat="47.3349" lon="4.93693">
        <ele>313.8</ele>
        <time>2016-10-25T14:30:47Z</time>
      </trkpt>
      <trkpt lat="47.33494" lon="4.93705">
        <ele>311.9</ele>
        <time>2016-10-25T14:30:58Z</time>
      </trkpt>
      <trkpt lat="47.33498" lon="4.93718">
        <ele>311</ele>
        <time>2016-10-25T14:31:07Z</time>
      </trkpt>
      <trkpt lat="47.33502" lon="4.93731">
        <ele>308.9</ele>
        <time>2016-10-25T14:31:23Z</time>
      </trkpt>
      <trkpt lat="47.33508" lon="4.93743">
        <ele>306.2</ele>
        <time>2016-10-25T14:31:42Z</time>
      </trkpt>
      <trkpt lat="47.33512" lon="4.93756">
        <ele>304.8</ele>
        <time>2016-10-25T14:31:51Z</time>
      </trkpt>
      <trkpt lat="47.33515" lon="4.9377">
        <ele>303.8</ele>
        <time>2016-10-25T14:31:58Z</time>
      </trkpt>
      <trkpt lat="47.33518" lon="4.93785">
        <ele>302.5</ele>
        <time>2016-10-25T14:32:07Z</time>
      </trkpt>
      <trkpt lat="47.33524" lon="4.93796">
        <ele>300.7</ele>
        <time>2016-10-25T14:32:21Z</time>
      </trkpt>
      <trkpt lat="47.33528" lon="4.93809">
        <ele>299.9</ele>
        <time>2016-10-25T14:32:30Z</time>
      </trkpt>
      <trkpt lat="47.33534" lon="4.9382">
        <ele>298.4</ele>
        <time>2016-10-25T14:32:39Z</time>
      </trkpt>
      <trkpt lat="47.33539" lon="4.93832">
        <ele>297.5</ele>
        <time>2016-10-25T14:32:48Z</time>
      </trkpt>
      <trkpt lat="47.33544" lon="4.93843">
        <ele>296.2</ele>
        <time>2016-10-25T14:33:00Z</time>
      </trkpt>
      <trkpt lat="47.33547" lon="4.93856">
        <ele>295</ele>
        <time>2016-10-25T14:33:09Z</time>
      </trkpt>
      <trkpt lat="47.33551" lon="4.9387">
        <ele>293.8</ele>
        <time>2016-10-25T14:33:17Z</time>
      </trkpt>
      <trkpt lat="47.33555" lon="4.93882">
        <ele>292.9</ele>
        <time>2016-10-25T14:33:25Z</time>
      </trkpt>
      <trkpt lat="47.33557" lon="4.93895">
        <ele>291.7</ele>
        <time>2016-10-25T14:33:34Z</time>
      </trkpt>
      <trkpt lat="47.33564" lon="4.93905">
        <ele>290.1</ele>
        <time>2016-10-25T14:33:46Z</time>
      </trkpt>
      <trkpt lat="47.33568" lon="4.93918">
        <ele>288.9</ele>
        <time>2016-10-25T14:33:56Z</time>
      </trkpt>
      <trkpt lat="47.33572" lon="4.93931">
        <ele>287.7</ele>
        <time>2016-10-25T14:34:06Z</time>
      </trkpt>
      <trkpt lat="47.33574" lon="4.93944">
        <ele>285.8</ele>
        <time>2016-10-25T14:34:18Z</time>
      </trkpt>
      <trkpt lat="47.33581" lon="4.93955">
        <ele>284.7</ele>
        <time>2016-10-25T14:34:28Z</time>
      </trkpt>
      <trkpt lat="47.33588" lon="4.93964">
        <ele>283.4</ele>
        <time>2016-10-25T14:34:38Z</time>
      </trkpt>
      <trkpt lat="47.33593" lon="4.93975">
        <ele>282.6</ele>
        <time>2016-10-25T14:34:46Z</time>
      </trkpt>
      <trkpt lat="47.33598" lon="4.93987">
        <ele>282.3</ele>
        <time>2016-10-25T14:34:55Z</time>
      </trkpt>
      <trkpt lat="47.33605" lon="4.93996">
        <ele>282</ele>
        <time>2016-10-25T14:35:01Z</time>
      </trkpt>
      <trkpt lat="47.3361" lon="4.9401">
        <ele>281.3</ele>
        <time>2016-10-25T14:35:07Z</time>
      </trkpt>
      <trkpt lat="47.33615" lon="4.94022">
        <ele>280.8</ele>
        <time>2016-10-25T14:35:14Z</time>
      </trkpt>
      <trkpt lat="47.33623" lon="4.9403">
        <ele>279.6</ele>
        <time>2016-10-25T14:35:24Z</time>
      </trkpt>
      <trkpt lat="47.33629" lon="4.94041">
        <ele>278.1</ele>
        <time>2016-10-25T14:35:59Z</time>
      </trkpt>
      <trkpt lat="47.33631" lon="4.94054">
        <ele>277.5</ele>
        <time>2016-10-25T14:37:29Z</time>
      </trkpt>
      <trkpt lat="47.33637" lon="4.94065">
        <ele>276.9</ele>
        <time>2016-10-25T14:38:29Z</time>
      </trkpt>
      <trkpt lat="47.33643" lon="4.94076">
        <ele>275.8</ele>
        <time>2016-10-25T14:38:37Z</time>
      </trkpt>
      <trkpt lat="47.33649" lon="4.94086">
        <ele>274.9</ele>
        <time>2016-10-25T14:38:46Z</time>
      </trkpt>
      <trkpt lat="47.33656" lon="4.94096">
        <ele>273.6</ele>
        <time>2016-10-25T14:38:55Z</time>
      </trkpt>
      <trkpt lat="47.33662" lon="4.94106">
        <ele>272.4</ele>
        <time>2016-10-25T14:39:05Z</time>
      </trkpt>
      <trkpt lat="47.33667" lon="4.94119">
        <ele>270.2</ele>
        <time>2016-10-25T14:39:21Z</time>
      </trkpt>
      <trkpt lat="47.33673" lon="4.94131">
        <ele>269.1</ele>
        <time>2016-10-25T14:39:29Z</time>
      </trkpt>
      <trkpt lat="47.33678" lon="4.94142">
        <ele>268.4</ele>
        <time>2016-10-25T14:39:35Z</time>
      </trkpt>
      <trkpt lat="47.33685" lon="4.94152">
        <ele>267.9</ele>
        <time>2016-10-25T14:39:42Z</time>
      </trkpt>
      <trkpt lat="47.33692" lon="4.94162">
        <ele>266</ele>
        <time>2016-10-25T14:39:55Z</time>
      </trkpt>
      <trkpt lat="47.33696" lon="4.94174">
        <ele>265.1</ele>
        <time>2016-10-25T14:40:03Z</time>
      </trkpt>
      <trkpt lat="47.33703" lon="4.94183">
        <ele>263.8</ele>
        <time>2016-10-25T14:40:11Z</time>
      </trkpt>
      <trkpt lat="47.33709" lon="4.94194">
        <ele>262.3</ele>
        <time>2016-10-25T14:40:21Z</time>
      </trkpt>
      <trkpt lat="47.33713" lon="4.94207">
        <ele>261.1</ele>
        <time>2016-10-25T14:40:28Z</time>
      </trkpt>
      <trkpt lat="47.33719" lon="4.94219">
        <ele>260.4</ele>
        <time>2016-10-25T14:40:35Z</time>
      </trkpt>
      <trkpt lat="47.33723" lon="4.94231">
        <ele>258.8</ele>
        <time>2016-10-25T14:40:47Z</time>
      </trkpt>
      <trkpt lat="47.33726" lon="4.94244">
        <ele>257.7</ele>
        <time>2016-10-25T14:40:57Z</time>
      </trkpt>
      <trkpt lat="47.33725" lon="4.94258">
        <ele>256.9</ele>
        <time>2016-10-25T14:41:06Z</time>
      </trkpt>
      <trkpt lat="47.33725" lon="4.94272">
        <ele>256.2</ele>
        <time>2016-10-25T14:41:16Z</time>
      </trkpt>
      <trkpt lat="47.33726" lon="4.94286">
        <ele>255.8</ele>
        <time>2016-10-25T14:41:25Z</time>
      </trkpt>
      <trkpt lat="47.33732" lon="4.94297">
        <ele>255.6</ele>
        <time>2016-10-25T14:41:33Z</time>
      </trkpt>
      <trkpt lat="47.33737" lon="4.94311">
        <ele>255.9</ele>
        <time>2016-10-25T14:41:46Z</time>
      </trkpt>
      <trkpt lat="47.33746" lon="4.94319">
        <ele>256.2</ele>
        <time>2016-10-25T14:41:54Z</time>
      </trkpt>
      <trkpt lat="47.33751" lon="4.9433">
        <ele>256.5</ele>
        <time>2016-10-25T14:42:04Z</time>
      </trkpt>
      <trkpt lat="47.33758" lon="4.94339">
        <ele>256.6</ele>
        <time>2016-10-25T14:42:19Z</time>
      </trkpt>
      <trkpt lat="47.33768" lon="4.94338">
        <ele>257</ele>
        <time>2016-10-25T14:42:28Z</time>
      </trkpt>
      <trkpt lat="47.33778" lon="4.94335">
        <ele>257.1</ele>
        <time>2016-10-25T14:42:35Z</time>
      </trkpt>
      <trkpt lat="47.33787" lon="4.94331">
        <ele>257.6</ele>
        <time>2016-10-25T14:42:42Z</time>
      </trkpt>
      <trkpt lat="47.33796" lon="4.94326">
        <ele>257.7</ele>
        <time>2016-10-25T14:42:50Z</time>
      </trkpt>
      <trkpt lat="47.33805" lon="4.94321">
        <ele>257.9</ele>
        <time>2016-10-25T14:43:00Z</time>
      </trkpt>
      <trkpt lat="47.33813" lon="4.94316">
        <ele>258</ele>
        <time>2016-10-25T14:43:09Z</time>
      </trkpt>
      <trkpt lat="47.33821" lon="4.94309">
        <ele>258.1</ele>
        <time>2016-10-25T14:43:17Z</time>
      </trkpt>
      <trkpt lat="47.33829" lon="4.94302">
        <ele>258.2</ele>
        <time>2016-10-25T14:43:24Z</time>
      </trkpt>
      <trkpt lat="47.33838" lon="4.94297">
        <ele>257.9</ele>
        <time>2016-10-25T14:43:33Z</time>
      </trkpt>
      <trkpt lat="47.33845" lon="4.94286">
        <ele>258</ele>
        <time>2016-10-25T14:43:41Z</time>
      </trkpt>
      <trkpt lat="47.33852" lon="4.94277">
        <ele>258.2</ele>
        <time>2016-10-25T14:43:49Z</time>
      </trkpt>
      <trkpt lat="47.33859" lon="4.9427">
        <ele>258.2</ele>
        <time>2016-10-25T14:43:57Z</time>
      </trkpt>
      <trkpt lat="47.33866" lon="4.94261">
        <ele>258.3</ele>
        <time>2016-10-25T14:44:04Z</time>
      </trkpt>
      <trkpt lat="47.33875" lon="4.94254">
        <ele>258.2</ele>
        <time>2016-10-25T14:44:18Z</time>
      </trkpt>
      <trkpt lat="47.33883" lon="4.94246">
        <ele>258.4</ele>
        <time>2016-10-25T14:44:25Z</time>
      </trkpt>
      <trkpt lat="47.33891" lon="4.94238">
        <ele>258.5</ele>
        <time>2016-10-25T14:44:31Z</time>
      </trkpt>
      <trkpt lat="47.33898" lon="4.94228">
        <ele>258.4</ele>
        <time>2016-10-25T14:44:45Z</time>
      </trkpt>
      <trkpt lat="47.33906" lon="4.9422">
        <ele>258.6</ele>
        <time>2016-10-25T14:44:56Z</time>
      </trkpt>
      <trkpt lat="47.33914" lon="4.94213">
        <ele>259</ele>
        <time>2016-10-25T14:45:39Z</time>
      </trkpt>
      <trkpt lat="47.3392" lon="4.94202">
        <ele>258.7</ele>
        <time>2016-10-25T14:45:47Z</time>
      </trkpt>
      <trkpt lat="47.33925" lon="4.9419">
        <ele>258</ele>
        <time>2016-10-25T14:45:55Z</time>
      </trkpt>
      <trkpt lat="47.33931" lon="4.9418">
        <ele>257.3</ele>
        <time>2016-10-25T14:46:03Z</time>
      </trkpt>
      <trkpt lat="47.33935" lon="4.94177">
        <ele>256.8</ele>
        <time>2016-10-25T14:46:35Z</time>
      </trkpt>
    </trkseg>
  </trk>
</gpx>